Wetterdaten: Sonntag, 06.08.2023
Datum Zeit Temp. Aussen Temp. o. S. Temp +5cm Feuchte Auss Luftdruck Regen Sonnenschein Regendauer Solar Windben Empfang
06.08.2023 00:00 15,8 C 15,0 C 11,7 C 92 % 1005,9 hPa 0,0 l/m 0 min 0 min 0 W/m 6,4 km/h (2 Bft) 95,74 %
06.08.2023 00:02 15,8 C 15,0 C 11,7 C 92 % 1005,9 hPa 0,0 l/m 0 min 0 min 0 W/m 6,4 km/h (2 Bft) 100,00 %
06.08.2023 00:04 15,7 C 15,0 C 11,7 C 92 % 1005,9 hPa 0,0 l/m 0 min 0 min 0 W/m 3,2 km/h (1 Bft) 97,83 %
06.08.2023 00:08 15,7 C 15,0 C 11,7 C 92 % 1005,8 hPa 0,0 l/m 0 min 0 min 0 W/m 6,4 km/h (2 Bft) 97,92 %
06.08.2023 00:10 15,7 C 15,0 C 11,7 C 92 % 1005,8 hPa 0,0 l/m 0 min 0 min 0 W/m 12,9 km/h (3 Bft) 97,87 %
06.08.2023 00:12 15,7 C 15,0 C 11,7 C 91 % 1005,7 hPa 0,0 l/m 0 min 0 min 0 W/m 6,4 km/h (2 Bft) 100,00 %
06.08.2023 00:14 15,7 C 15,0 C 11,7 C 91 % 1005,7 hPa 0,0 l/m 0 min 0 min 0 W/m 12,9 km/h (3 Bft) 100,00 %
06.08.2023 00:16 15,6 C 15,0 C 11,7 C 91 % 1005,7 hPa 0,0 l/m 0 min 0 min 0 W/m 6,4 km/h (2 Bft) 97,87 %
06.08.2023 00:18 15,6 C 15,0 C 11,7 C 91 % 1005,7 hPa 0,0 l/m 0 min 0 min 0 W/m 12,9 km/h (3 Bft) 100,00 %
06.08.2023 00:20 15,6 C 15,0 C 11,7 C 91 % 1005,6 hPa 0,0 l/m 0 min 0 min 0 W/m 3,2 km/h (1 Bft) 100,00 %
06.08.2023 00:22 15,6 C 15,0 C 11,7 C 91 % 1005,6 hPa 0,0 l/m 0 min 0 min 0 W/m 6,4 km/h (2 Bft) 95,74 %
06.08.2023 00:24 15,6 C 15,0 C 11,7 C 91 % 1005,6 hPa 0,0 l/m 0 min 0 min 0 W/m 12,9 km/h (3 Bft) 100,00 %
06.08.2023 00:26 15,6 C 15,0 C 11,7 C 91 % 1005,6 hPa 0,0 l/m 0 min 0 min 0 W/m 6,4 km/h (2 Bft) 100,00 %
06.08.2023 00:28 15,6 C 15,0 C 11,7 C 91 % 1005,6 hPa 0,0 l/m 0 min 0 min 0 W/m 6,4 km/h (2 Bft) 97,87 %
06.08.2023 00:30 15,6 C 15,0 C 11,7 C 91 % 1005,5 hPa 0,0 l/m 0 min 0 min 0 W/m 6,4 km/h (2 Bft) 100,00 %
06.08.2023 00:32 15,6 C 15,0 C 11,7 C 91 % 1005,5 hPa 0,0 l/m 0 min 0 min 0 W/m 6,4 km/h (2 Bft) 100,00 %
06.08.2023 00:34 15,6 C 15,0 C 11,7 C 91 % 1005,5 hPa 0,0 l/m 0 min 0 min 0 W/m 3,2 km/h (1 Bft) 100,00 %
06.08.2023 00:36 15,6 C 15,0 C 11,7 C 91 % 1005,5 hPa 0,0 l/m 0 min 0 min 0 W/m 6,4 km/h (2 Bft) 97,87 %
06.08.2023 00:38 15,6 C 15,0 C 11,7 C 91 % 1005,4 hPa 0,0 l/m 0 min 0 min 0 W/m 3,2 km/h (1 Bft) 100,00 %
06.08.2023 00:40 15,6 C 15,0 C 11,7 C 91 % 1005,4 hPa 0,0 l/m 0 min 0 min 0 W/m 6,4 km/h (2 Bft) 100,00 %
06.08.2023 00:42 15,6 C 15,0 C 11,7 C 91 % 1005,4 hPa 0,0 l/m 0 min 0 min 0 W/m 6,4 km/h (2 Bft) 100,00 %
06.08.2023 00:44 15,6 C 15,0 C 11,7 C 91 % 1005,4 hPa 0,0 l/m 0 min 0 min 0 W/m 3,2 km/h (1 Bft) 100,00 %
06.08.2023 00:46 15,6 C 15,0 C 11,7 C 91 % 1005,4 hPa 0,0 l/m 0 min 0 min 0 W/m 12,9 km/h (3 Bft) 100,00 %
06.08.2023 00:48 15,6 C 15,0 C 11,7 C 91 % 1005,2 hPa 0,0 l/m 0 min 0 min 0 W/m 6,4 km/h (2 Bft) 95,74 %
06.08.2023 00:50 15,6 C 15,0 C 11,7 C 91 % 1005,2 hPa 0,0 l/m 0 min 0 min 0 W/m 6,4 km/h (2 Bft) 100,00 %
06.08.2023 00:52 15,6 C 15,0 C 11,7 C 91 % 1005,2 hPa 0,0 l/m 0 min 0 min 0 W/m 3,2 km/h (1 Bft) 100,00 %
06.08.2023 00:54 15,6 C 15,0 C 11,7 C 91 % 1005,2 hPa 0,0 l/m 0 min 0 min 0 W/m 0,0 km/h (0 Bft) 100,00 %
06.08.2023 00:56 15,6 C 15,0 C 11,7 C 91 % 1005,2 hPa 0,0 l/m 0 min 0 min 0 W/m 6,4 km/h (2 Bft) 100,00 %
06.08.2023 00:58 15,6 C 15,0 C 11,7 C 91 % 1005,2 hPa 0,0 l/m 0 min 0 min 0 W/m 9,7 km/h (2 Bft) 100,00 %
06.08.2023 01:00 15,6 C 15,0 C 11,7 C 91 % 1005,2 hPa 0,0 l/m 0 min 0 min 0 W/m 6,4 km/h (2 Bft) 100,00 %
06.08.2023 01:02 15,6 C 15,0 C 11,7 C 91 % 1005,2 hPa 0,0 l/m 0 min 0 min 0 W/m 3,2 km/h (1 Bft) 95,74 %
06.08.2023 01:04 15,6 C 15,0 C 11,7 C 91 % 1005,2 hPa 0,0 l/m 0 min 0 min 0 W/m 6,4 km/h (2 Bft) 97,87 %
06.08.2023 01:06 15,6 C 15,0 C 11,7 C 91 % 1005,2 hPa 0,0 l/m 0 min 0 min 0 W/m 3,2 km/h (1 Bft) 96,61 %
06.08.2023 01:08 15,6 C 15,0 C 11,7 C 91 % 1005,2 hPa 0,0 l/m 0 min 0 min 0 W/m 3,2 km/h (1 Bft) 100,00 %
06.08.2023 01:10 15,6 C 15,0 C 11,7 C 91 % 1005,1 hPa 0,0 l/m 0 min 0 min 0 W/m 6,4 km/h (2 Bft) 100,00 %
06.08.2023 01:12 15,6 C 15,0 C 11,7 C 91 % 1005,1 hPa 0,0 l/m 0 min 0 min 0 W/m 6,4 km/h (2 Bft) 97,87 %
06.08.2023 01:14 15,6 C 15,0 C 11,7 C 91 % 1005,1 hPa 0,0 l/m 0 min 0 min 0 W/m 6,4 km/h (2 Bft) 97,83 %
06.08.2023 01:16 15,6 C 15,0 C 11,7 C 91 % 1005,1 hPa 0,0 l/m 0 min 0 min 0 W/m 6,4 km/h (2 Bft) 97,87 %
06.08.2023 01:18 15,6 C 15,0 C 11,7 C 91 % 1005,0 hPa 0,0 l/m 0 min 0 min 0 W/m 3,2 km/h (1 Bft) 100,00 %
06.08.2023 01:20 15,6 C 15,0 C 11,7 C 91 % 1005,1 hPa 0,0 l/m 0 min 0 min 0 W/m 6,4 km/h (2 Bft) 97,87 %
06.08.2023 01:22 15,6 C 15,0 C 11,7 C 91 % 1005,0 hPa 0,0 l/m 0 min 0 min 0 W/m 3,2 km/h (1 Bft) 95,74 %
06.08.2023 01:24 15,6 C 15,0 C 11,7 C 91 % 1005,0 hPa 0,0 l/m 0 min 0 min 0 W/m 3,2 km/h (1 Bft) 97,87 %
06.08.2023 01:26 15,6 C 15,0 C 11,7 C 91 % 1005,0 hPa 0,0 l/m 0 min 0 min 0 W/m 6,4 km/h (2 Bft) 95,74 %
06.08.2023 01:28 15,6 C 15,0 C 11,7 C 91 % 1005,0 hPa 0,0 l/m 0 min 0 min 0 W/m 6,4 km/h (2 Bft) 97,87 %
06.08.2023 01:30 15,6 C 15,0 C 11,7 C 91 % 1004,9 hPa 0,0 l/m 0 min 0 min 0 W/m 9,7 km/h (2 Bft) 95,65 %
06.08.2023 01:32 15,6 C 15,0 C 11,7 C 91 % 1005,0 hPa 0,0 l/m 0 min 0 min 0 W/m 6,4 km/h (2 Bft) 95,74 %
06.08.2023 01:34 15,6 C 15,0 C 11,7 C 91 % 1004,9 hPa 0,0 l/m 0 min 0 min 0 W/m 6,4 km/h (2 Bft) 93,62 %
06.08.2023 01:36 15,6 C 15,0 C 11,7 C 91 % 1004,9 hPa 0,0 l/m 0 min 0 min 0 W/m 3,2 km/h (1 Bft) 95,74 %
06.08.2023 01:38 15,6 C 15,0 C 11,7 C 91 % 1004,9 hPa 0,0 l/m 0 min 0 min 0 W/m 3,2 km/h (1 Bft) 95,74 %
06.08.2023 01:40 15,6 C 15,0 C 11,7 C 91 % 1004,9 hPa 0,0 l/m 0 min 0 min 0 W/m 3,2 km/h (1 Bft) 95,74 %
06.08.2023 01:42 15,7 C 15,0 C 11,7 C 91 % 1004,9 hPa 0,0 l/m 0 min 0 min 0 W/m 3,2 km/h (1 Bft) 95,74 %
06.08.2023 01:44 15,7 C 15,0 C 11,7 C 91 % 1004,9 hPa 0,0 l/m 0 min 0 min 0 W/m 3,2 km/h (1 Bft) 97,83 %
06.08.2023 01:46 15,7 C 15,0 C 11,7 C 91 % 1004,8 hPa 0,0 l/m 0 min 0 min 0 W/m 16,1 km/h (3 Bft) 97,87 %
06.08.2023 01:48 15,7 C 15,0 C 11,7 C 91 % 1004,8 hPa 0,0 l/m 0 min 0 min 0 W/m 12,9 km/h (3 Bft) 97,87 %
06.08.2023 01:50 15,7 C 15,0 C 11,7 C 91 % 1004,8 hPa 0,0 l/m 0 min 0 min 0 W/m 6,4 km/h (2 Bft) 97,87 %
06.08.2023 01:52 15,7 C 15,0 C 11,7 C 91 % 1004,8 hPa 0,0 l/m 0 min 0 min 0 W/m 3,2 km/h (1 Bft) 97,87 %
06.08.2023 01:54 15,7 C 15,0 C 11,7 C 91 % 1004,8 hPa 0,0 l/m 0 min 0 min 0 W/m 3,2 km/h (1 Bft) 100,00 %
06.08.2023 01:56 15,7 C 15,0 C 11,7 C 92 % 1004,8 hPa 0,0 l/m 0 min 0 min 0 W/m 6,4 km/h (2 Bft) 97,87 %
06.08.2023 01:58 15,7 C 15,0 C 11,7 C 92 % 1004,8 hPa 0,0 l/m 0 min 0 min 0 W/m 6,4 km/h (2 Bft) 95,65 %
06.08.2023 02:00 15,7 C 15,0 C 11,7 C 92 % 1004,8 hPa 0,0 l/m 0 min 0 min 0 W/m 6,4 km/h (2 Bft) 95,74 %
06.08.2023 02:02 15,7 C 15,0 C 11,7 C 92 % 1004,7 hPa 0,0 l/m 0 min 0 min 0 W/m 6,4 km/h (2 Bft) 95,74 %
06.08.2023 02:04 15,7 C 15,0 C 11,7 C 92 % 1004,8 hPa 0,0 l/m 0 min 0 min 0 W/m 6,4 km/h (2 Bft) 95,74 %
06.08.2023 02:06 15,7 C 15,0 C 11,7 C 92 % 1004,7 hPa 0,0 l/m 0 min 0 min 0 W/m 3,2 km/h (1 Bft) 93,62 %
06.08.2023 02:08 15,7 C 15,0 C 11,7 C 92 % 1004,7 hPa 0,0 l/m 0 min 0 min 0 W/m 6,4 km/h (2 Bft) 95,74 %
06.08.2023 02:10 15,7 C 15,0 C 11,7 C 92 % 1004,7 hPa 0,0 l/m 0 min 0 min 0 W/m 6,4 km/h (2 Bft) 95,74 %
06.08.2023 02:12 15,7 C 15,0 C 11,7 C 92 % 1004,7 hPa 0,0 l/m 0 min 0 min 0 W/m 12,9 km/h (3 Bft) 95,65 %
06.08.2023 02:14 15,7 C 15,0 C 11,7 C 92 % 1004,6 hPa 0,0 l/m 0 min 0 min 0 W/m 6,4 km/h (2 Bft) 95,74 %
06.08.2023 02:16 15,7 C 15,0 C 11,7 C 91 % 1004,6 hPa 0,0 l/m 0 min 0 min 0 W/m 6,4 km/h (2 Bft) 93,62 %
06.08.2023 02:18 15,7 C 15,0 C 11,7 C 91 % 1004,7 hPa 0,0 l/m 0 min 0 min 0 W/m 3,2 km/h (1 Bft) 95,74 %
06.08.2023 02:20 15,7 C 15,0 C 11,7 C 91 % 1004,6 hPa 0,0 l/m 0 min 0 min 0 W/m 3,2 km/h (1 Bft) 97,87 %
06.08.2023 02:22 15,7 C 15,0 C 11,7 C 91 % 1004,5 hPa 0,0 l/m 0 min 0 min 0 W/m 3,2 km/h (1 Bft) 95,74 %
06.08.2023 02:24 15,7 C 15,0 C 11,7 C 91 % 1004,5 hPa 0,0 l/m 0 min 0 min 0 W/m 3,2 km/h (1 Bft) 95,74 %
06.08.2023 02:26 15,7 C 15,0 C 11,7 C 91 % 1004,5 hPa 0,0 l/m 0 min 0 min 0 W/m 6,4 km/h (2 Bft) 97,83 %
06.08.2023 02:28 15,7 C 15,0 C 11,7 C 92 % 1004,4 hPa 0,0 l/m 0 min 0 min 0 W/m 3,2 km/h (1 Bft) 97,87 %
06.08.2023 02:30 15,7 C 15,0 C 11,7 C 92 % 1004,5 hPa 0,0 l/m 0 min 0 min 0 W/m 3,2 km/h (1 Bft) 95,74 %
06.08.2023 02:32 15,7 C 15,0 C 11,7 C 91 % 1004,4 hPa 0,0 l/m 0 min 0 min 0 W/m 3,2 km/h (1 Bft) 97,87 %
06.08.2023 02:34 15,7 C 15,0 C 11,7 C 91 % 1004,4 hPa 0,0 l/m 0 min 0 min 0 W/m 3,2 km/h (1 Bft) 97,87 %
06.08.2023 02:36 15,7 C 14,4 C 11,7 C 91 % 1004,4 hPa 0,0 l/m 0 min 0 min 0 W/m 3,2 km/h (1 Bft) 95,74 %
06.08.2023 02:38 15,7 C 14,4 C 11,7 C 91 % 1004,4 hPa 0,0 l/m 0 min 0 min 0 W/m 3,2 km/h (1 Bft) 97,87 %
06.08.2023 02:40 15,6 C 14,4 C 11,1 C 91 % 1004,4 hPa 0,0 l/m 0 min 0 min 0 W/m 3,2 km/h (1 Bft) 95,74 %
06.08.2023 02:42 15,6 C 14,4 C 11,1 C 91 % 1004,4 hPa 0,0 l/m 0 min 0 min 0 W/m 0,0 km/h (0 Bft) 97,83 %
06.08.2023 02:44 15,6 C 14,4 C 11,1 C 91 % 1004,5 hPa 0,0 l/m 0 min 0 min 0 W/m 3,2 km/h (1 Bft) 95,74 %
06.08.2023 02:46 15,6 C 14,4 C 11,1 C 91 % 1004,5 hPa 0,0 l/m 0 min 0 min 0 W/m 0,0 km/h (0 Bft) 97,87 %
06.08.2023 02:48 15,6 C 14,4 C 11,1 C 91 % 1004,5 hPa 0,0 l/m 0 min 0 min 0 W/m 0,0 km/h (0 Bft) 100,00 %
06.08.2023 02:50 15,6 C 14,4 C 11,1 C 91 % 1004,4 hPa 0,0 l/m 0 min 0 min 0 W/m 0,0 km/h (0 Bft) 95,74 %
06.08.2023 02:52 15,6 C 14,4 C 11,1 C 91 % 1004,4 hPa 0,0 l/m 0 min 0 min 0 W/m 3,2 km/h (1 Bft) 100,00 %
06.08.2023 02:54 15,6 C 14,4 C 11,1 C 91 % 1004,5 hPa 0,0 l/m 0 min 0 min 0 W/m 3,2 km/h (1 Bft) 100,00 %
06.08.2023 02:56 15,6 C 14,4 C 11,1 C 92 % 1004,4 hPa 0,0 l/m 0 min 0 min 0 W/m 3,2 km/h (1 Bft) 100,00 %
06.08.2023 02:58 15,5 C 14,4 C 11,1 C 92 % 1004,5 hPa 0,0 l/m 0 min 0 min 0 W/m 6,4 km/h (2 Bft) 97,87 %
06.08.2023 03:00 15,5 C 14,4 C 11,1 C 92 % 1004,4 hPa 0,0 l/m 0 min 0 min 0 W/m 6,4 km/h (2 Bft) 95,74 %
06.08.2023 03:02 15,5 C 14,4 C 11,1 C 92 % 1004,5 hPa 0,0 l/m 0 min 0 min 0 W/m 6,4 km/h (2 Bft) 100,00 %
06.08.2023 03:04 15,5 C 14,4 C 11,1 C 92 % 1004,5 hPa 0,0 l/m 0 min 0 min 0 W/m 3,2 km/h (1 Bft) 97,62 %
06.08.2023 03:06 15,5 C 14,4 C 11,7 C 92 % 1004,4 hPa 0,0 l/m 0 min 0 min 0 W/m 6,4 km/h (2 Bft) 98,11 %
06.08.2023 03:08 15,5 C 15,0 C 11,7 C 92 % 1004,5 hPa 0,0 l/m 0 min 0 min 0 W/m 6,4 km/h (2 Bft) 95,12 %
06.08.2023 03:10 15,5 C 15,0 C 11,7 C 92 % 1004,4 hPa 0,0 l/m 0 min 0 min 0 W/m 6,4 km/h (2 Bft) 97,87 %
06.08.2023 03:12 15,5 C 15,0 C 11,7 C 92 % 1004,5 hPa 0,0 l/m 0 min 0 min 0 W/m 3,2 km/h (1 Bft) 95,74 %
06.08.2023 03:14 15,5 C 15,0 C 11,7 C 92 % 1004,4 hPa 0,0 l/m 0 min 0 min 0 W/m 3,2 km/h (1 Bft) 93,62 %
06.08.2023 03:16 15,5 C 15,0 C 11,7 C 92 % 1004,4 hPa 0,0 l/m 0 min 0 min 0 W/m 6,4 km/h (2 Bft) 95,65 %
06.08.2023 03:18 15,5 C 15,0 C 11,7 C 92 % 1004,4 hPa 0,0 l/m 0 min 0 min 0 W/m 3,2 km/h (1 Bft) 97,87 %
06.08.2023 03:20 15,5 C 15,0 C 11,7 C 92 % 1004,4 hPa 0,0 l/m 0 min 0 min 0 W/m 6,4 km/h (2 Bft) 97,87 %
06.08.2023 03:22 15,5 C 15,0 C 11,7 C 92 % 1004,4 hPa 0,0 l/m 0 min 0 min 0 W/m 3,2 km/h (1 Bft) 97,87 %
06.08.2023 03:24 15,5 C 15,0 C 11,7 C 92 % 1004,4 hPa 0,0 l/m 0 min 0 min 0 W/m 6,4 km/h (2 Bft) 97,87 %
06.08.2023 03:26 15,5 C 15,0 C 11,7 C 92 % 1004,4 hPa 0,0 l/m 0 min 0 min 0 W/m 3,2 km/h (1 Bft) 97,87 %
06.08.2023 03:28 15,5 C 15,0 C 11,7 C 92 % 1004,4 hPa 0,0 l/m 0 min 0 min 0 W/m 16,1 km/h (3 Bft) 97,87 %
06.08.2023 03:30 15,5 C 15,0 C 11,7 C 92 % 1004,4 hPa 0,0 l/m 0 min 0 min 0 W/m 6,4 km/h (2 Bft) 97,87 %
06.08.2023 03:32 15,5 C 15,0 C 11,7 C 92 % 1004,4 hPa 0,0 l/m 0 min 0 min 0 W/m 3,2 km/h (1 Bft) 95,65 %
06.08.2023 03:34 15,6 C 15,0 C 11,7 C 92 % 1004,3 hPa 0,0 l/m 0 min 0 min 0 W/m 3,2 km/h (1 Bft) 100,00 %
06.08.2023 03:36 15,5 C 15,0 C 11,7 C 92 % 1004,3 hPa 0,0 l/m 0 min 0 min 0 W/m 9,7 km/h (2 Bft) 100,00 %
06.08.2023 03:38 15,5 C 15,0 C 11,7 C 92 % 1004,3 hPa 0,0 l/m 0 min 0 min 0 W/m 3,2 km/h (1 Bft) 97,87 %
06.08.2023 03:40 15,6 C 15,0 C 11,7 C 92 % 1004,3 hPa 0,0 l/m 0 min 0 min 0 W/m 6,4 km/h (2 Bft) 97,87 %
06.08.2023 03:42 15,5 C 15,0 C 11,7 C 92 % 1004,4 hPa 0,0 l/m 0 min 0 min 0 W/m 6,4 km/h (2 Bft) 100,00 %
06.08.2023 03:44 15,6 C 15,0 C 11,7 C 92 % 1004,4 hPa 0,0 l/m 0 min 0 min 0 W/m 3,2 km/h (1 Bft) 100,00 %
06.08.2023 03:46 15,5 C 15,0 C 11,7 C 92 % 1004,3 hPa 0,0 l/m 0 min 0 min 0 W/m 6,4 km/h (2 Bft) 100,00 %
06.08.2023 03:48 15,6 C 15,0 C 11,7 C 92 % 1004,3 hPa 0,0 l/m 0 min 0 min 0 W/m 6,4 km/h (2 Bft) 100,00 %
06.08.2023 03:50 15,6 C 15,0 C 11,7 C 92 % 1004,3 hPa 0,0 l/m 0 min 0 min 0 W/m 6,4 km/h (2 Bft) 100,00 %
06.08.2023 03:52 15,6 C 15,0 C 11,7 C 93 % 1004,3 hPa 0,0 l/m 0 min 0 min 0 W/m 6,4 km/h (2 Bft) 100,00 %
06.08.2023 03:54 15,6 C 15,0 C 11,7 C 93 % 1004,3 hPa 0,0 l/m 0 min 0 min 0 W/m 6,4 km/h (2 Bft) 100,00 %
06.08.2023 03:56 15,6 C 15,0 C 11,7 C 93 % 1004,2 hPa 0,0 l/m 0 min 0 min 0 W/m 3,2 km/h (1 Bft) 100,00 %
06.08.2023 03:58 15,6 C 15,0 C 11,7 C 93 % 1004,2 hPa 0,0 l/m 0 min 0 min 0 W/m 6,4 km/h (2 Bft) 100,00 %
06.08.2023 04:00 15,6 C 15,0 C 11,1 C 93 % 1004,2 hPa 0,0 l/m 0 min 0 min 0 W/m 3,2 km/h (1 Bft) 97,83 %
06.08.2023 04:02 15,6 C 14,4 C 11,1 C 93 % 1004,2 hPa 0,0 l/m 0 min 0 min 0 W/m 6,4 km/h (2 Bft) 93,75 %
06.08.2023 04:04 15,6 C 14,4 C 11,1 C 93 % 1004,1 hPa 0,0 l/m 0 min 0 min 0 W/m 3,2 km/h (1 Bft) 100,00 %
06.08.2023 04:06 15,6 C 14,4 C 11,1 C 93 % 1004,2 hPa 0,0 l/m 0 min 0 min 0 W/m 6,4 km/h (2 Bft) 100,00 %
06.08.2023 04:08 15,6 C 14,4 C 11,1 C 93 % 1004,1 hPa 0,0 l/m 0 min 0 min 0 W/m 3,2 km/h (1 Bft) 97,87 %
06.08.2023 04:10 15,6 C 14,4 C 11,1 C 93 % 1004,1 hPa 0,0 l/m 0 min 0 min 0 W/m 6,4 km/h (2 Bft) 100,00 %
06.08.2023 04:12 15,6 C 14,4 C 11,1 C 93 % 1004,1 hPa 0,0 l/m 0 min 0 min 0 W/m 3,2 km/h (1 Bft) 97,83 %
06.08.2023 04:14 15,6 C 14,4 C 11,1 C 93 % 1004,1 hPa 0,0 l/m 0 min 0 min 0 W/m 3,2 km/h (1 Bft) 100,00 %
06.08.2023 04:16 15,5 C 14,4 C 11,1 C 93 % 1004,1 hPa 0,0 l/m 0 min 0 min 0 W/m 3,2 km/h (1 Bft) 100,00 %
06.08.2023 04:18 15,5 C 14,4 C 11,1 C 93 % 1004,1 hPa 0,0 l/m 0 min 0 min 0 W/m 3,2 km/h (1 Bft) 97,87 %
06.08.2023 04:20 15,5 C 14,4 C 11,1 C 93 % 1004,1 hPa 0,0 l/m 0 min 0 min 0 W/m 3,2 km/h (1 Bft) 97,87 %
06.08.2023 04:22 15,5 C 14,4 C 11,1 C 93 % 1004,1 hPa 0,0 l/m 0 min 0 min 0 W/m 3,2 km/h (1 Bft) 97,87 %
06.08.2023 04:24 15,4 C 14,4 C 11,1 C 93 % 1004,1 hPa 0,0 l/m 0 min 0 min 0 W/m 3,2 km/h (1 Bft) 97,87 %
06.08.2023 04:26 15,4 C 14,4 C 11,1 C 93 % 1004,1 hPa 0,0 l/m 0 min 0 min 0 W/m 3,2 km/h (1 Bft) 97,87 %
06.08.2023 04:28 15,4 C 14,4 C 11,1 C 93 % 1004,1 hPa 0,0 l/m 0 min 0 min 0 W/m 3,2 km/h (1 Bft) 95,65 %
06.08.2023 04:30 15,4 C 14,4 C 11,1 C 93 % 1004,1 hPa 0,0 l/m 0 min 0 min 0 W/m 3,2 km/h (1 Bft) 95,74 %
06.08.2023 04:32 15,4 C 14,4 C 11,1 C 93 % 1004,1 hPa 0,0 l/m 0 min 0 min 0 W/m 6,4 km/h (2 Bft) 97,87 %
06.08.2023 04:34 15,4 C 14,4 C 11,1 C 93 % 1004,1 hPa 0,0 l/m 0 min 0 min 0 W/m 6,4 km/h (2 Bft) 97,87 %
06.08.2023 04:36 15,4 C 14,4 C 11,1 C 93 % 1004,1 hPa 0,0 l/m 0 min 0 min 0 W/m 3,2 km/h (1 Bft) 97,87 %
06.08.2023 04:38 15,4 C 14,4 C 11,1 C 93 % 1004,1 hPa 0,0 l/m 0 min 0 min 0 W/m 3,2 km/h (1 Bft) 97,87 %
06.08.2023 04:40 15,4 C 14,4 C 11,1 C 93 % 1004,1 hPa 0,0 l/m 0 min 0 min 0 W/m 3,2 km/h (1 Bft) 97,87 %
06.08.2023 04:42 15,4 C 14,4 C 11,1 C 93 % 1004,0 hPa 0,0 l/m 0 min 0 min 0 W/m 3,2 km/h (1 Bft) 93,48 %
06.08.2023 04:44 15,4 C 14,4 C 11,1 C 93 % 1004,0 hPa 0,0 l/m 0 min 0 min 0 W/m 0,0 km/h (0 Bft) 97,87 %
06.08.2023 04:46 15,4 C 14,4 C 11,1 C 93 % 1004,0 hPa 0,0 l/m 0 min 0 min 0 W/m 0,0 km/h (0 Bft) 94,29 %
06.08.2023 04:48 15,4 C 14,4 C 11,1 C 93 % 1003,9 hPa 0,0 l/m 0 min 0 min 0 W/m 0,0 km/h (0 Bft) 95,74 %
06.08.2023 04:50 15,4 C 14,4 C 11,1 C 93 % 1003,9 hPa 0,0 l/m 0 min 0 min 0 W/m 0,0 km/h (0 Bft) 98,31 %
06.08.2023 04:52 15,4 C 14,4 C 11,1 C 93 % 1003,8 hPa 0,0 l/m 0 min 0 min 0 W/m 0,0 km/h (0 Bft) 95,74 %
06.08.2023 04:54 15,4 C 14,4 C 11,1 C 94 % 1003,8 hPa 0,0 l/m 0 min 0 min 0 W/m 0,0 km/h (0 Bft) 91,43 %
06.08.2023 04:56 15,4 C 14,4 C 11,1 C 94 % 1003,8 hPa 0,0 l/m 0 min 0 min 0 W/m 0,0 km/h (0 Bft) 93,62 %
06.08.2023 04:58 15,4 C 14,4 C 11,1 C 94 % 1003,8 hPa 0,0 l/m 0 min 0 min 0 W/m 0,0 km/h (0 Bft) 93,10 %
06.08.2023 05:00 15,4 C 14,4 C 11,1 C 94 % 1003,8 hPa 0,0 l/m 0 min 0 min 0 W/m 0,0 km/h (0 Bft) 97,14 %
06.08.2023 05:02 15,4 C 14,4 C 11,1 C 94 % 1003,8 hPa 0,0 l/m 0 min 0 min 0 W/m 0,0 km/h (0 Bft) 91,49 %
06.08.2023 05:04 15,4 C 14,4 C 11,1 C 94 % 1003,8 hPa 0,0 l/m 0 min 0 min 0 W/m 0,0 km/h (0 Bft) 95,83 %
06.08.2023 05:06 15,4 C 14,4 C 11,1 C 94 % 1003,8 hPa 0,0 l/m 0 min 0 min 0 W/m 0,0 km/h (0 Bft) 96,61 %
06.08.2023 05:08 15,4 C 14,4 C 11,1 C 94 % 1003,8 hPa 0,0 l/m 0 min 0 min 0 W/m 0,0 km/h (0 Bft) 94,29 %
06.08.2023 05:10 15,4 C 14,4 C 11,1 C 94 % 1003,8 hPa 0,0 l/m 0 min 0 min 0 W/m 0,0 km/h (0 Bft) 95,74 %
06.08.2023 05:12 15,4 C 14,4 C 11,1 C 94 % 1003,8 hPa 0,0 l/m 0 min 0 min 0 W/m 0,0 km/h (0 Bft) 97,87 %
06.08.2023 05:14 15,4 C 14,4 C 11,1 C 94 % 1003,8 hPa 0,0 l/m 0 min 0 min 0 W/m 0,0 km/h (0 Bft) 95,74 %
06.08.2023 05:16 15,4 C 14,4 C 11,1 C 94 % 1003,8 hPa 0,0 l/m 0 min 0 min 0 W/m 0,0 km/h (0 Bft) 95,74 %
06.08.2023 05:18 15,4 C 14,4 C 11,1 C 94 % 1003,7 hPa 0,0 l/m 0 min 0 min 0 W/m 0,0 km/h (0 Bft) 95,74 %
06.08.2023 05:20 15,4 C 14,4 C 11,1 C 94 % 1003,7 hPa 0,0 l/m 0 min 0 min 0 W/m 0,0 km/h (0 Bft) 93,62 %
06.08.2023 05:22 15,4 C 14,4 C 11,1 C 94 % 1003,7 hPa 0,0 l/m 0 min 0 min 0 W/m 0,0 km/h (0 Bft) 95,74 %
06.08.2023 05:24 15,3 C 14,4 C 11,1 C 94 % 1003,7 hPa 0,0 l/m 0 min 0 min 0 W/m 3,2 km/h (1 Bft) 93,48 %
06.08.2023 05:26 15,4 C 14,4 C 11,1 C 94 % 1003,7 hPa 0,0 l/m 0 min 0 min 0 W/m 0,0 km/h (0 Bft) 95,74 %
06.08.2023 05:28 15,4 C 14,4 C 11,1 C 94 % 1003,7 hPa 0,0 l/m 0 min 0 min 0 W/m 0,0 km/h (0 Bft) 95,74 %
06.08.2023 05:30 15,3 C 14,4 C 11,1 C 94 % 1003,6 hPa 0,0 l/m 0 min 0 min 0 W/m 0,0 km/h (0 Bft) 97,87 %
06.08.2023 05:32 15,3 C 14,4 C 11,1 C 94 % 1003,6 hPa 0,0 l/m 0 min 0 min 0 W/m 0,0 km/h (0 Bft) 95,74 %
06.08.2023 05:34 15,3 C 14,4 C 11,1 C 94 % 1003,6 hPa 0,0 l/m 0 min 0 min 0 W/m 0,0 km/h (0 Bft) 97,87 %
06.08.2023 05:36 15,3 C 14,4 C 11,1 C 94 % 1003,6 hPa 0,0 l/m 0 min 0 min 0 W/m 0,0 km/h (0 Bft) 95,74 %
06.08.2023 05:38 15,3 C 14,4 C 11,1 C 94 % 1003,6 hPa 0,0 l/m 0 min 0 min 0 W/m 0,0 km/h (0 Bft) 95,65 %
06.08.2023 05:40 15,3 C 14,4 C 11,1 C 95 % 1003,6 hPa 0,0 l/m 0 min 0 min 0 W/m 0,0 km/h (0 Bft) 97,87 %
06.08.2023 05:42 15,3 C 14,4 C 11,1 C 95 % 1003,7 hPa 0,0 l/m 0 min 0 min 0 W/m 0,0 km/h (0 Bft) 97,87 %
06.08.2023 05:44 15,3 C 14,4 C 11,1 C 95 % 1003,7 hPa 0,0 l/m 0 min 0 min 0 W/m 0,0 km/h (0 Bft) 100,00 %
06.08.2023 05:46 15,3 C 14,4 C 11,1 C 95 % 1003,7 hPa 0,0 l/m 0 min 0 min 0 W/m 0,0 km/h (0 Bft) 100,00 %
06.08.2023 05:48 15,3 C 14,4 C 11,1 C 95 % 1003,6 hPa 0,0 l/m 0 min 0 min 0 W/m 0,0 km/h (0 Bft) 100,00 %
06.08.2023 05:50 15,3 C 14,4 C 11,1 C 95 % 1003,6 hPa 0,0 l/m 0 min 0 min 0 W/m 0,0 km/h (0 Bft) 97,87 %
06.08.2023 05:52 15,3 C 14,4 C 11,1 C 95 % 1003,7 hPa 0,0 l/m 0 min 0 min 0 W/m 0,0 km/h (0 Bft) 100,00 %
06.08.2023 05:54 15,3 C 14,4 C 11,1 C 95 % 1003,7 hPa 0,0 l/m 0 min 0 min 0 W/m 0,0 km/h (0 Bft) 100,00 %
06.08.2023 05:56 15,3 C 14,4 C 11,1 C 95 % 1003,7 hPa 0,0 l/m 0 min 0 min 0 W/m 0,0 km/h (0 Bft) 100,00 %
06.08.2023 05:58 15,3 C 14,4 C 11,1 C 95 % 1003,7 hPa 0,0 l/m 0 min 0 min 0 W/m 0,0 km/h (0 Bft) 97,87 %
06.08.2023 06:00 15,3 C 14,4 C 11,1 C 95 % 1003,6 hPa 0,0 l/m 0 min 0 min 0 W/m 0,0 km/h (0 Bft) 100,00 %
06.08.2023 06:02 15,3 C 14,4 C 11,1 C 95 % 1003,6 hPa 0,0 l/m 0 min 0 min 0 W/m 0,0 km/h (0 Bft) 100,00 %
06.08.2023 06:04 15,3 C 14,4 C 11,1 C 95 % 1003,7 hPa 0,0 l/m 0 min 0 min 0 W/m 3,2 km/h (1 Bft) 100,00 %
06.08.2023 06:07 15,3 C 14,4 C 11,1 C 95 % 1003,6 hPa 0,0 l/m 0 min 0 min 0 W/m 3,2 km/h (1 Bft) 100,00 %
06.08.2023 06:08 15,3 C 14,4 C 11,1 C 95 % 1003,6 hPa 0,0 l/m 0 min 0 min 0 W/m 3,2 km/h (1 Bft) 100,00 %
06.08.2023 06:12 15,2 C 14,4 C 10,6 C 95 % 1003,6 hPa 0,0 l/m 0 min 0 min 0 W/m 3,2 km/h (1 Bft) 100,00 %
06.08.2023 06:14 15,2 C 14,4 C 10,6 C 95 % 1003,6 hPa 0,0 l/m 0 min 0 min 0 W/m 0,0 km/h (0 Bft) 100,00 %
06.08.2023 06:16 15,2 C 14,4 C 10,6 C 95 % 1003,7 hPa 0,0 l/m 0 min 0 min 0 W/m 0,0 km/h (0 Bft) 100,00 %
06.08.2023 06:18 15,2 C 14,4 C 10,6 C 95 % 1003,7 hPa 0,0 l/m 0 min 0 min 0 W/m 0,0 km/h (0 Bft) 97,87 %
06.08.2023 06:20 15,2 C 14,4 C 10,6 C 95 % 1003,7 hPa 0,0 l/m 0 min 0 min 3 W/m 3,2 km/h (1 Bft) 100,00 %
06.08.2023 06:22 15,2 C 14,4 C 10,6 C 95 % 1003,6 hPa 0,0 l/m 0 min 0 min 5 W/m 3,2 km/h (1 Bft) 95,74 %
06.08.2023 06:24 15,2 C 14,4 C 10,6 C 95 % 1003,6 hPa 0,0 l/m 0 min 0 min 5 W/m 3,2 km/h (1 Bft) 97,87 %
06.08.2023 06:26 15,2 C 14,4 C 10,6 C 95 % 1003,6 hPa 0,0 l/m 0 min 0 min 5 W/m 3,2 km/h (1 Bft) 100,00 %
06.08.2023 06:28 15,2 C 14,4 C 10,6 C 95 % 1003,6 hPa 0,0 l/m 0 min 0 min 7 W/m 3,2 km/h (1 Bft) 100,00 %
06.08.2023 06:30 15,2 C 14,4 C 10,6 C 95 % 1003,6 hPa 0,0 l/m 0 min 0 min 7 W/m 3,2 km/h (1 Bft) 97,87 %
06.08.2023 06:32 15,2 C 14,4 C 10,6 C 96 % 1003,6 hPa 0,0 l/m 0 min 0 min 7 W/m 0,0 km/h (0 Bft) 100,00 %
06.08.2023 06:34 15,2 C 14,4 C 10,6 C 96 % 1003,6 hPa 0,0 l/m 0 min 0 min 8 W/m 3,2 km/h (1 Bft) 100,00 %
06.08.2023 06:36 15,2 C 14,4 C 10,6 C 96 % 1003,6 hPa 0,0 l/m 0 min 0 min 10 W/m 3,2 km/h (1 Bft) 95,74 %
06.08.2023 06:38 15,2 C 14,4 C 10,6 C 96 % 1003,6 hPa 0,0 l/m 0 min 0 min 13 W/m 3,2 km/h (1 Bft) 97,87 %
06.08.2023 06:40 15,2 C 14,4 C 10,6 C 96 % 1003,6 hPa 0,0 l/m 0 min 0 min 17 W/m 0,0 km/h (0 Bft) 100,00 %
06.08.2023 06:42 15,2 C 14,4 C 10,6 C 96 % 1003,6 hPa 0,0 l/m 0 min 0 min 20 W/m 0,0 km/h (0 Bft) 100,00 %
06.08.2023 06:44 15,2 C 14,4 C 10,6 C 96 % 1003,6 hPa 0,0 l/m 0 min 0 min 22 W/m 0,0 km/h (0 Bft) 100,00 %
06.08.2023 06:46 15,2 C 14,4 C 11,1 C 96 % 1003,6 hPa 0,0 l/m 0 min 0 min 25 W/m 0,0 km/h (0 Bft) 93,62 %
06.08.2023 06:48 15,2 C 14,4 C 11,1 C 96 % 1003,6 hPa 0,0 l/m 0 min 0 min 25 W/m 0,0 km/h (0 Bft) 97,87 %
06.08.2023 06:50 15,2 C 14,4 C 11,1 C 96 % 1003,6 hPa 0,0 l/m 0 min 0 min 28 W/m 0,0 km/h (0 Bft) 97,87 %
06.08.2023 06:52 15,2 C 14,4 C 11,1 C 96 % 1003,7 hPa 0,0 l/m 0 min 0 min 30 W/m 0,0 km/h (0 Bft) 97,87 %
06.08.2023 06:54 15,2 C 14,4 C 11,1 C 96 % 1003,7 hPa 0,0 l/m 0 min 0 min 32 W/m 0,0 km/h (0 Bft) 95,65 %
06.08.2023 06:56 15,2 C 14,4 C 11,1 C 96 % 1003,7 hPa 0,0 l/m 0 min 0 min 33 W/m 0,0 km/h (0 Bft) 95,74 %
06.08.2023 06:58 15,2 C 14,4 C 11,1 C 96 % 1003,7 hPa 0,0 l/m 0 min 0 min 35 W/m 3,2 km/h (1 Bft) 95,74 %
06.08.2023 07:00 15,2 C 14,4 C 11,1 C 96 % 1003,7 hPa 0,0 l/m 0 min 0 min 37 W/m 3,2 km/h (1 Bft) 91,84 %
06.08.2023 07:02 15,2 C 14,4 C 11,1 C 96 % 1003,7 hPa 0,0 l/m 0 min 0 min 43 W/m 0,0 km/h (0 Bft) 95,35 %
06.08.2023 07:04 15,2 C 15,0 C 11,1 C 96 % 1003,7 hPa 0,0 l/m 0 min 0 min 55 W/m 0,0 km/h (0 Bft) 95,92 %
06.08.2023 07:06 15,3 C 15,0 C 11,1 C 96 % 1003,7 hPa 0,0 l/m 2 min 0 min 68 W/m 0,0 km/h (0 Bft) 95,74 %
06.08.2023 07:08 15,3 C 15,0 C 11,1 C 96 % 1003,7 hPa 0,0 l/m 2 min 0 min 76 W/m 0,0 km/h (0 Bft) 95,74 %
06.08.2023 07:10 15,3 C 15,0 C 11,7 C 96 % 1003,7 hPa 0,0 l/m 2 min 0 min 77 W/m 3,2 km/h (1 Bft) 95,74 %
06.08.2023 07:12 15,3 C 15,0 C 11,7 C 96 % 1003,7 hPa 0,0 l/m 0 min 0 min 72 W/m 3,2 km/h (1 Bft) 93,62 %
06.08.2023 07:14 15,3 C 15,0 C 11,7 C 97 % 1003,8 hPa 0,0 l/m 0 min 0 min 69 W/m 3,2 km/h (1 Bft) 95,74 %
06.08.2023 07:16 15,3 C 15,0 C 11,7 C 97 % 1003,7 hPa 0,0 l/m 0 min 0 min 64 W/m 3,2 km/h (1 Bft) 97,83 %
06.08.2023 07:18 15,3 C 15,0 C 11,7 C 97 % 1003,7 hPa 0,0 l/m 0 min 0 min 60 W/m 3,2 km/h (1 Bft) 95,74 %
06.08.2023 07:20 15,3 C 15,0 C 11,7 C 97 % 1003,7 hPa 0,0 l/m 0 min 0 min 56 W/m 6,4 km/h (2 Bft) 97,87 %
06.08.2023 07:22 15,3 C 15,0 C 11,7 C 96 % 1003,7 hPa 0,0 l/m 0 min 0 min 53 W/m 3,2 km/h (1 Bft) 97,87 %
06.08.2023 07:24 15,2 C 15,0 C 11,7 C 96 % 1003,7 hPa 0,0 l/m 0 min 0 min 49 W/m 3,2 km/h (1 Bft) 97,87 %
06.08.2023 07:26 15,2 C 15,0 C 11,7 C 96 % 1003,8 hPa 0,0 l/m 0 min 0 min 47 W/m 3,2 km/h (1 Bft) 97,87 %
06.08.2023 07:28 15,2 C 15,0 C 11,7 C 96 % 1003,8 hPa 0,0 l/m 0 min 0 min 46 W/m 3,2 km/h (1 Bft) 97,87 %
06.08.2023 07:30 15,2 C 15,0 C 11,7 C 96 % 1003,8 hPa 0,0 l/m 0 min 0 min 44 W/m 0,0 km/h (0 Bft) 95,65 %
06.08.2023 07:32 15,2 C 15,0 C 11,7 C 96 % 1003,8 hPa 0,0 l/m 0 min 0 min 46 W/m 0,0 km/h (0 Bft) 97,87 %
06.08.2023 07:34 15,2 C 15,0 C 11,7 C 96 % 1003,8 hPa 0,0 l/m 0 min 0 min 49 W/m 0,0 km/h (0 Bft) 95,74 %
06.08.2023 07:36 15,2 C 15,0 C 11,7 C 96 % 1003,9 hPa 0,0 l/m 0 min 0 min 50 W/m 0,0 km/h (0 Bft) 97,87 %
06.08.2023 07:38 15,2 C 15,0 C 11,7 C 96 % 1003,9 hPa 0,0 l/m 0 min 0 min 53 W/m 0,0 km/h (0 Bft) 97,87 %
06.08.2023 07:40 15,2 C 15,0 C 11,7 C 96 % 1004,0 hPa 0,0 l/m 0 min 0 min 56 W/m 0,0 km/h (0 Bft) 97,87 %
06.08.2023 07:42 15,2 C 15,0 C 11,7 C 96 % 1004,0 hPa 0,0 l/m 0 min 0 min 63 W/m 0,0 km/h (0 Bft) 97,87 %
06.08.2023 07:44 15,3 C 15,0 C 11,7 C 96 % 1004,0 hPa 0,0 l/m 0 min 0 min 71 W/m 0,0 km/h (0 Bft) 97,83 %
06.08.2023 07:46 15,3 C 15,0 C 11,7 C 96 % 1004,0 hPa 0,0 l/m 0 min 0 min 79 W/m 0,0 km/h (0 Bft) 97,87 %
06.08.2023 07:48 15,2 C 15,0 C 11,7 C 96 % 1004,0 hPa 0,0 l/m 0 min 0 min 83 W/m 0,0 km/h (0 Bft) 97,87 %
06.08.2023 07:50 15,3 C 15,0 C 11,7 C 96 % 1004,0 hPa 0,0 l/m 0 min 0 min 83 W/m 0,0 km/h (0 Bft) 100,00 %
06.08.2023 07:52 15,3 C 15,0 C 11,7 C 96 % 1004,1 hPa 0,0 l/m 0 min 0 min 81 W/m 0,0 km/h (0 Bft) 97,87 %
06.08.2023 07:54 15,3 C 15,0 C 11,7 C 96 % 1004,1 hPa 0,0 l/m 0 min 0 min 77 W/m 0,0 km/h (0 Bft) 93,62 %
06.08.2023 07:56 15,3 C 15,0 C 11,7 C 96 % 1004,1 hPa 0,0 l/m 0 min 0 min 80 W/m 0,0 km/h (0 Bft) 95,74 %
06.08.2023 07:58 15,3 C 15,0 C 11,7 C 96 % 1004,1 hPa 0,0 l/m 0 min 0 min 79 W/m 0,0 km/h (0 Bft) 97,87 %
06.08.2023 08:00 15,3 C 15,0 C 11,7 C 96 % 1004,1 hPa 0,0 l/m 0 min 0 min 75 W/m 0,0 km/h (0 Bft) 100,00 %
06.08.2023 08:02 15,3 C 15,0 C 11,7 C 96 % 1004,1 hPa 0,0 l/m 0 min 0 min 75 W/m 0,0 km/h (0 Bft) 93,62 %
06.08.2023 08:04 15,3 C 15,0 C 11,7 C 96 % 1004,1 hPa 0,0 l/m 0 min 0 min 74 W/m 0,0 km/h (0 Bft) 95,92 %
06.08.2023 08:06 15,3 C 15,0 C 11,7 C 96 % 1004,1 hPa 0,0 l/m 0 min 0 min 76 W/m 0,0 km/h (0 Bft) 97,87 %
06.08.2023 08:08 15,3 C 15,0 C 11,7 C 96 % 1004,2 hPa 0,0 l/m 0 min 0 min 79 W/m 0,0 km/h (0 Bft) 97,14 %
06.08.2023 08:10 15,3 C 15,0 C 11,7 C 96 % 1004,1 hPa 0,0 l/m 0 min 0 min 80 W/m 0,0 km/h (0 Bft) 95,74 %
06.08.2023 08:12 15,3 C 15,0 C 11,7 C 96 % 1004,1 hPa 0,0 l/m 0 min 0 min 82 W/m 0,0 km/h (0 Bft) 94,55 %
06.08.2023 08:14 15,4 C 15,6 C 11,7 C 96 % 1004,2 hPa 0,0 l/m 0 min 0 min 83 W/m 0,0 km/h (0 Bft) 97,83 %
06.08.2023 08:16 15,4 C 15,6 C 11,7 C 96 % 1004,2 hPa 0,0 l/m 0 min 0 min 85 W/m 0,0 km/h (0 Bft) 98,00 %
06.08.2023 08:18 15,4 C 15,6 C 11,7 C 96 % 1004,2 hPa 0,0 l/m 0 min 0 min 87 W/m 0,0 km/h (0 Bft) 97,87 %
06.08.2023 08:20 15,4 C 15,6 C 12,2 C 96 % 1004,3 hPa 0,0 l/m 0 min 0 min 89 W/m 0,0 km/h (0 Bft) 97,87 %
06.08.2023 08:22 15,4 C 15,6 C 12,2 C 96 % 1004,2 hPa 0,0 l/m 0 min 0 min 90 W/m 0,0 km/h (0 Bft) 97,87 %
06.08.2023 08:24 15,4 C 15,6 C 12,2 C 96 % 1004,3 hPa 0,0 l/m 0 min 0 min 91 W/m 0,0 km/h (0 Bft) 97,87 %
06.08.2023 08:26 15,4 C 15,6 C 12,2 C 96 % 1004,2 hPa 0,0 l/m 0 min 0 min 92 W/m 0,0 km/h (0 Bft) 95,74 %
06.08.2023 08:28 15,4 C 15,6 C 12,2 C 96 % 1004,3 hPa 0,0 l/m 0 min 0 min 96 W/m 0,0 km/h (0 Bft) 95,65 %
06.08.2023 08:30 15,4 C 15,6 C 12,2 C 96 % 1004,3 hPa 0,0 l/m 0 min 0 min 102 W/m 0,0 km/h (0 Bft) 95,74 %
06.08.2023 08:32 15,5 C 15,6 C 12,2 C 96 % 1004,3 hPa 0,0 l/m 0 min 0 min 111 W/m 0,0 km/h (0 Bft) 97,87 %
06.08.2023 08:34 15,5 C 15,6 C 12,2 C 96 % 1004,3 hPa 0,0 l/m 0 min 0 min 117 W/m 0,0 km/h (0 Bft) 97,87 %
06.08.2023 08:36 15,6 C 15,6 C 12,2 C 96 % 1004,4 hPa 0,0 l/m 0 min 0 min 122 W/m 0,0 km/h (0 Bft) 95,74 %
06.08.2023 08:38 15,6 C 15,6 C 12,2 C 96 % 1004,4 hPa 0,0 l/m 0 min 0 min 129 W/m 0,0 km/h (0 Bft) 100,00 %
06.08.2023 08:40 15,6 C 16,1 C 12,2 C 96 % 1004,4 hPa 0,0 l/m 0 min 0 min 135 W/m 0,0 km/h (0 Bft) 97,87 %
06.08.2023 08:42 15,6 C 16,1 C 12,2 C 96 % 1004,4 hPa 0,0 l/m 0 min 0 min 142 W/m 0,0 km/h (0 Bft) 97,83 %
06.08.2023 08:44 15,7 C 16,1 C 12,2 C 96 % 1004,4 hPa 0,0 l/m 0 min 0 min 151 W/m 0,0 km/h (0 Bft) 97,87 %
06.08.2023 08:46 15,7 C 16,1 C 12,2 C 96 % 1004,5 hPa 0,0 l/m 0 min 0 min 160 W/m 0,0 km/h (0 Bft) 97,87 %
06.08.2023 08:48 15,7 C 16,1 C 12,8 C 96 % 1004,5 hPa 0,0 l/m 0 min 0 min 174 W/m 0,0 km/h (0 Bft) 97,87 %
06.08.2023 08:50 15,8 C 16,1 C 12,8 C 95 % 1004,5 hPa 0,0 l/m 2 min 0 min 202 W/m 0,0 km/h (0 Bft) 97,87 %
06.08.2023 08:52 15,8 C 16,7 C 12,8 C 96 % 1004,5 hPa 0,0 l/m 2 min 0 min 211 W/m 0,0 km/h (0 Bft) 95,74 %
06.08.2023 08:54 15,8 C 16,7 C 12,8 C 96 % 1004,5 hPa 0,0 l/m 2 min 0 min 210 W/m 0,0 km/h (0 Bft) 97,87 %
06.08.2023 08:56 15,9 C 16,7 C 12,8 C 96 % 1004,5 hPa 0,0 l/m 2 min 0 min 203 W/m 0,0 km/h (0 Bft) 97,87 %
06.08.2023 08:58 15,9 C 16,7 C 12,8 C 95 % 1004,5 hPa 0,0 l/m 0 min 0 min 192 W/m 0,0 km/h (0 Bft) 97,83 %
06.08.2023 09:00 16,0 C 16,7 C 12,8 C 95 % 1004,5 hPa 0,0 l/m 0 min 0 min 180 W/m 0,0 km/h (0 Bft) 97,87 %
06.08.2023 09:02 16,0 C 16,7 C 12,8 C 95 % 1004,5 hPa 0,0 l/m 0 min 0 min 173 W/m 0,0 km/h (0 Bft) 97,87 %
06.08.2023 09:04 16,1 C 16,7 C 12,8 C 95 % 1004,5 hPa 0,0 l/m 0 min 0 min 174 W/m 0,0 km/h (0 Bft) 97,87 %
06.08.2023 09:06 16,1 C 16,7 C 12,8 C 95 % 1004,5 hPa 0,0 l/m 0 min 0 min 182 W/m 0,0 km/h (0 Bft) 95,83 %
06.08.2023 09:08 16,1 C 16,7 C 12,8 C 95 % 1004,5 hPa 0,0 l/m 0 min 0 min 198 W/m 0,0 km/h (0 Bft) 97,87 %
06.08.2023 09:10 16,1 C 16,7 C 12,8 C 95 % 1004,5 hPa 0,0 l/m 2 min 0 min 223 W/m 0,0 km/h (0 Bft) 97,83 %
06.08.2023 09:12 16,1 C 16,7 C 12,8 C 95 % 1004,5 hPa 0,0 l/m 2 min 0 min 249 W/m 0,0 km/h (0 Bft) 97,87 %
06.08.2023 09:14 16,2 C 17,2 C 13,3 C 94 % 1004,5 hPa 0,0 l/m 2 min 0 min 276 W/m 0,0 km/h (0 Bft) 100,00 %
06.08.2023 09:16 16,2 C 17,2 C 13,3 C 94 % 1004,5 hPa 0,0 l/m 2 min 0 min 301 W/m 0,0 km/h (0 Bft) 97,87 %
06.08.2023 09:18 16,3 C 17,8 C 13,3 C 94 % 1004,6 hPa 0,0 l/m 2 min 0 min 322 W/m 0,0 km/h (0 Bft) 100,00 %
06.08.2023 09:20 16,4 C 18,3 C 13,9 C 94 % 1004,6 hPa 0,0 l/m 2 min 0 min 314 W/m 0,0 km/h (0 Bft) 100,00 %
06.08.2023 09:22 16,5 C 18,9 C 13,9 C 94 % 1004,6 hPa 0,0 l/m 2 min 0 min 314 W/m 0,0 km/h (0 Bft) 100,00 %
06.08.2023 09:24 16,6 C 18,9 C 13,9 C 94 % 1004,6 hPa 0,0 l/m 0 min 0 min 218 W/m 0,0 km/h (0 Bft) 100,00 %
06.08.2023 09:26 16,6 C 18,3 C 13,9 C 94 % 1004,6 hPa 0,0 l/m 0 min 0 min 165 W/m 0,0 km/h (0 Bft) 97,87 %
06.08.2023 09:28 16,7 C 17,8 C 13,3 C 93 % 1004,7 hPa 0,0 l/m 0 min 0 min 133 W/m 0,0 km/h (0 Bft) 100,00 %
06.08.2023 09:30 16,7 C 17,8 C 13,3 C 93 % 1004,7 hPa 0,0 l/m 0 min 0 min 114 W/m 0,0 km/h (0 Bft) 100,00 %
06.08.2023 09:32 16,7 C 17,2 C 13,3 C 93 % 1004,7 hPa 0,0 l/m 0 min 0 min 121 W/m 0,0 km/h (0 Bft) 100,00 %
06.08.2023 09:34 16,8 C 17,2 C 13,3 C 93 % 1004,7 hPa 0,0 l/m 0 min 0 min 154 W/m 0,0 km/h (0 Bft) 100,00 %
06.08.2023 09:36 16,8 C 17,2 C 13,3 C 93 % 1004,7 hPa 0,0 l/m 0 min 0 min 208 W/m 0,0 km/h (0 Bft) 97,87 %
06.08.2023 09:38 16,8 C 17,2 C 13,3 C 92 % 1004,7 hPa 0,0 l/m 0 min 0 min 241 W/m 0,0 km/h (0 Bft) 100,00 %
06.08.2023 09:40 16,9 C 17,2 C 13,3 C 92 % 1004,7 hPa 0,0 l/m 0 min 0 min 214 W/m 0,0 km/h (0 Bft) 97,83 %
06.08.2023 09:42 16,9 C 17,8 C 13,3 C 92 % 1004,7 hPa 0,0 l/m 0 min 0 min 198 W/m 0,0 km/h (0 Bft) 100,00 %
06.08.2023 09:44 16,9 C 17,2 C 13,3 C 92 % 1004,7 hPa 0,0 l/m 0 min 0 min 172 W/m 0,0 km/h (0 Bft) 100,00 %
06.08.2023 09:46 17,0 C 17,2 C 13,3 C 92 % 1004,7 hPa 0,0 l/m 0 min 0 min 162 W/m 0,0 km/h (0 Bft) 97,87 %
06.08.2023 09:48 17,0 C 17,2 C 13,3 C 92 % 1004,7 hPa 0,0 l/m 0 min 0 min 180 W/m 0,0 km/h (0 Bft) 100,00 %
06.08.2023 09:50 17,0 C 17,2 C 13,3 C 91 % 1004,8 hPa 0,0 l/m 0 min 0 min 199 W/m 6,4 km/h (2 Bft) 97,87 %
06.08.2023 09:52 17,1 C 17,2 C 13,3 C 91 % 1004,7 hPa 0,0 l/m 0 min 0 min 234 W/m 3,2 km/h (1 Bft) 100,00 %
06.08.2023 09:54 17,1 C 17,8 C 13,3 C 91 % 1004,8 hPa 0,0 l/m 2 min 0 min 274 W/m 6,4 km/h (2 Bft) 100,00 %
06.08.2023 09:56 17,1 C 17,8 C 13,3 C 91 % 1004,8 hPa 0,0 l/m 0 min 0 min 258 W/m 3,2 km/h (1 Bft) 100,00 %
06.08.2023 09:58 17,2 C 18,3 C 13,9 C 91 % 1004,8 hPa 0,0 l/m 0 min 0 min 271 W/m 3,2 km/h (1 Bft) 100,00 %
06.08.2023 10:00 17,2 C 18,3 C 13,9 C 91 % 1004,8 hPa 0,0 l/m 2 min 0 min 338 W/m 6,4 km/h (2 Bft) 95,74 %
06.08.2023 10:02 17,2 C 18,3 C 13,9 C 91 % 1004,8 hPa 0,0 l/m 2 min 0 min 385 W/m 6,4 km/h (2 Bft) 100,00 %
06.08.2023 10:04 17,3 C 18,9 C 13,9 C 90 % 1004,7 hPa 0,0 l/m 2 min 0 min 422 W/m 6,4 km/h (2 Bft) 100,00 %
06.08.2023 10:06 17,4 C 20,0 C 13,9 C 90 % 1004,7 hPa 0,0 l/m 2 min 0 min 473 W/m 3,2 km/h (1 Bft) 95,74 %
06.08.2023 10:08 17,4 C 21,1 C 13,9 C 90 % 1004,8 hPa 0,0 l/m 2 min 0 min 697 W/m 6,4 km/h (2 Bft) 97,83 %
06.08.2023 10:10 17,6 C 21,7 C 13,9 C 90 % 1004,7 hPa 0,0 l/m 2 min 0 min 769 W/m 6,4 km/h (2 Bft) 97,87 %
06.08.2023 10:12 17,7 C 22,2 C 14,4 C 90 % 1004,8 hPa 0,0 l/m 2 min 0 min 797 W/m 6,4 km/h (2 Bft) 93,75 %
06.08.2023 10:14 17,8 C 21,7 C 14,4 C 90 % 1004,8 hPa 0,0 l/m 2 min 0 min 685 W/m 6,4 km/h (2 Bft) 97,83 %
06.08.2023 10:16 18,0 C 21,7 C 15,0 C 90 % 1004,7 hPa 0,0 l/m 2 min 0 min 600 W/m 12,9 km/h (3 Bft) 97,87 %
06.08.2023 10:18 18,1 C 21,1 C 15,0 C 89 % 1004,8 hPa 0,0 l/m 2 min 0 min 361 W/m 6,4 km/h (2 Bft) 97,87 %
06.08.2023 10:20 18,2 C 20,6 C 14,4 C 88 % 1004,8 hPa 0,0 l/m 0 min 0 min 277 W/m 6,4 km/h (2 Bft) 97,87 %
06.08.2023 10:22 18,2 C 20,0 C 14,4 C 88 % 1004,8 hPa 0,0 l/m 0 min 0 min 248 W/m 9,7 km/h (2 Bft) 97,83 %
06.08.2023 10:24 18,2 C 19,4 C 14,4 C 87 % 1004,8 hPa 0,0 l/m 0 min 0 min 279 W/m 6,4 km/h (2 Bft) 93,62 %
06.08.2023 10:26 18,3 C 18,9 C 14,4 C 87 % 1004,9 hPa 0,0 l/m 0 min 0 min 254 W/m 6,4 km/h (2 Bft) 95,74 %
06.08.2023 10:28 18,3 C 18,9 C 14,4 C 86 % 1004,9 hPa 0,0 l/m 0 min 0 min 268 W/m 9,7 km/h (2 Bft) 93,62 %
06.08.2023 10:30 18,3 C 18,9 C 14,4 C 86 % 1004,9 hPa 0,0 l/m 0 min 0 min 244 W/m 9,7 km/h (2 Bft) 91,49 %
06.08.2023 10:32 18,3 C 18,3 C 14,4 C 86 % 1004,9 hPa 0,0 l/m 0 min 0 min 205 W/m 9,7 km/h (2 Bft) 95,74 %
06.08.2023 10:34 18,3 C 18,3 C 14,4 C 86 % 1004,9 hPa 0,0 l/m 0 min 0 min 193 W/m 9,7 km/h (2 Bft) 95,65 %
06.08.2023 10:36 18,3 C 18,3 C 14,4 C 86 % 1004,9 hPa 0,0 l/m 0 min 0 min 199 W/m 12,9 km/h (3 Bft) 95,74 %
06.08.2023 10:38 18,3 C 18,3 C 14,4 C 86 % 1004,9 hPa 0,0 l/m 0 min 0 min 196 W/m 16,1 km/h (3 Bft) 95,74 %
06.08.2023 10:40 18,3 C 17,8 C 13,9 C 86 % 1005,0 hPa 0,0 l/m 0 min 0 min 178 W/m 9,7 km/h (2 Bft) 93,62 %
06.08.2023 10:42 18,2 C 17,8 C 13,9 C 86 % 1005,0 hPa 0,0 l/m 0 min 0 min 152 W/m 12,9 km/h (3 Bft) 95,74 %
06.08.2023 10:44 18,2 C 17,8 C 13,9 C 86 % 1005,0 hPa 0,0 l/m 0 min 0 min 147 W/m 12,9 km/h (3 Bft) 93,62 %
06.08.2023 10:46 18,1 C 17,8 C 13,9 C 86 % 1005,0 hPa 0,0 l/m 0 min 0 min 158 W/m 9,7 km/h (2 Bft) 95,74 %
06.08.2023 10:48 18,1 C 17,2 C 13,9 C 86 % 1005,0 hPa 0,0 l/m 0 min 0 min 157 W/m 16,1 km/h (3 Bft) 93,48 %
06.08.2023 10:50 18,0 C 17,2 C 13,3 C 86 % 1005,0 hPa 0,0 l/m 0 min 0 min 127 W/m 6,4 km/h (2 Bft) 93,62 %
06.08.2023 10:52 17,9 C 16,7 C 13,3 C 87 % 1005,1 hPa 0,0 l/m 0 min 2 min 139 W/m 12,9 km/h (3 Bft) 93,62 %
06.08.2023 10:54 17,8 C 16,7 C 12,8 C 87 % 1005,2 hPa 0,0 l/m 0 min 2 min 135 W/m 9,7 km/h (2 Bft) 93,62 %
06.08.2023 10:56 17,7 C 16,7 C 12,8 C 88 % 1005,1 hPa 0,0 l/m 0 min 2 min 121 W/m 12,9 km/h (3 Bft) 91,49 %
06.08.2023 10:58 17,7 C 16,1 C 12,8 C 88 % 1005,1 hPa 0,2 l/m 0 min 2 min 121 W/m 12,9 km/h (3 Bft) 93,62 %
06.08.2023 11:00 17,6 C 16,1 C 12,2 C 89 % 1005,2 hPa 0,0 l/m 0 min 2 min 138 W/m 12,9 km/h (3 Bft) 93,62 %
06.08.2023 11:02 17,4 C 16,1 C 12,2 C 89 % 1005,2 hPa 0,0 l/m 0 min 0 min 177 W/m 6,4 km/h (2 Bft) 89,36 %
06.08.2023 11:04 17,3 C 16,7 C 12,8 C 90 % 1005,2 hPa 0,0 l/m 0 min 0 min 218 W/m 16,1 km/h (3 Bft) 92,68 %
06.08.2023 11:06 17,2 C 16,7 C 12,8 C 91 % 1005,2 hPa 0,0 l/m 0 min 0 min 258 W/m 9,7 km/h (2 Bft) 92,45 %
06.08.2023 11:08 17,3 C 16,7 C 12,8 C 91 % 1005,2 hPa 0,0 l/m 0 min 0 min 279 W/m 9,7 km/h (2 Bft) 97,14 %
06.08.2023 11:10 17,2 C 16,7 C 12,8 C 92 % 1005,3 hPa 0,0 l/m 0 min 0 min 293 W/m 9,7 km/h (2 Bft) 94,23 %
06.08.2023 11:12 17,3 C 17,8 C 13,3 C 92 % 1005,4 hPa 0,0 l/m 2 min 0 min 380 W/m 16,1 km/h (3 Bft) 93,62 %
06.08.2023 11:14 17,3 C 17,8 C 13,9 C 93 % 1005,4 hPa 0,0 l/m 2 min 0 min 623 W/m 6,4 km/h (2 Bft) 97,87 %
06.08.2023 11:16 17,4 C 17,8 C 13,3 C 93 % 1005,4 hPa 0,0 l/m 2 min 0 min 630 W/m 12,9 km/h (3 Bft) 97,87 %
06.08.2023 11:18 17,4 C 17,2 C 13,3 C 93 % 1005,4 hPa 0,0 l/m 0 min 0 min 165 W/m 12,9 km/h (3 Bft) 97,87 %
06.08.2023 11:20 17,3 C 17,2 C 13,3 C 93 % 1005,4 hPa 0,0 l/m 0 min 0 min 152 W/m 12,9 km/h (3 Bft) 97,83 %
06.08.2023 11:22 17,2 C 16,7 C 13,3 C 93 % 1005,4 hPa 0,0 l/m 0 min 0 min 145 W/m 12,9 km/h (3 Bft) 97,87 %
06.08.2023 11:24 17,2 C 16,7 C 13,3 C 93 % 1005,4 hPa 0,0 l/m 0 min 0 min 147 W/m 9,7 km/h (2 Bft) 100,00 %
06.08.2023 11:26 17,1 C 16,7 C 13,3 C 93 % 1005,5 hPa 0,0 l/m 0 min 0 min 167 W/m 9,7 km/h (2 Bft) 100,00 %
06.08.2023 11:28 17,1 C 16,7 C 13,3 C 93 % 1005,5 hPa 0,0 l/m 0 min 0 min 182 W/m 12,9 km/h (3 Bft) 100,00 %
06.08.2023 11:30 17,1 C 16,7 C 13,3 C 93 % 1005,5 hPa 0,0 l/m 0 min 0 min 185 W/m 16,1 km/h (3 Bft) 100,00 %
06.08.2023 11:32 17,1 C 16,7 C 13,3 C 93 % 1005,5 hPa 0,0 l/m 0 min 0 min 174 W/m 12,9 km/h (3 Bft) 100,00 %
06.08.2023 11:34 16,9 C 16,7 C 13,3 C 93 % 1005,6 hPa 0,0 l/m 0 min 0 min 153 W/m 12,9 km/h (3 Bft) 100,00 %
06.08.2023 11:36 16,9 C 16,7 C 12,8 C 93 % 1005,6 hPa 0,0 l/m 0 min 0 min 156 W/m 12,9 km/h (3 Bft) 100,00 %
06.08.2023 11:38 16,9 C 16,7 C 13,3 C 93 % 1005,6 hPa 0,0 l/m 0 min 0 min 142 W/m 12,9 km/h (3 Bft) 100,00 %
06.08.2023 11:40 16,8 C 16,7 C 12,8 C 93 % 1005,6 hPa 0,0 l/m 0 min 0 min 123 W/m 12,9 km/h (3 Bft) 100,00 %
06.08.2023 11:42 16,8 C 16,7 C 12,8 C 93 % 1005,6 hPa 0,0 l/m 0 min 0 min 124 W/m 12,9 km/h (3 Bft) 100,00 %
06.08.2023 11:44 16,8 C 16,7 C 12,8 C 93 % 1005,6 hPa 0,0 l/m 0 min 0 min 130 W/m 16,1 km/h (3 Bft) 100,00 %
06.08.2023 11:46 16,8 C 16,7 C 12,8 C 93 % 1005,6 hPa 0,0 l/m 0 min 0 min 137 W/m 12,9 km/h (3 Bft) 95,74 %
06.08.2023 11:48 16,8 C 16,7 C 12,8 C 93 % 1005,6 hPa 0,0 l/m 0 min 0 min 138 W/m 12,9 km/h (3 Bft) 100,00 %
06.08.2023 11:50 16,8 C 16,1 C 12,8 C 93 % 1005,8 hPa 0,0 l/m 0 min 2 min 136 W/m 19,3 km/h (3 Bft) 100,00 %
06.08.2023 11:52 16,8 C 16,1 C 12,8 C 93 % 1005,7 hPa 0,0 l/m 0 min 2 min 114 W/m 16,1 km/h (3 Bft) 100,00 %
06.08.2023 11:54 16,8 C 16,1 C 12,2 C 93 % 1005,9 hPa 0,0 l/m 0 min 2 min 126 W/m 16,1 km/h (3 Bft) 97,87 %
06.08.2023 11:56 16,7 C 16,1 C 12,2 C 93 % 1005,8 hPa 0,0 l/m 0 min 2 min 158 W/m 19,3 km/h (3 Bft) 100,00 %
06.08.2023 11:58 16,7 C 15,6 C 11,7 C 93 % 1005,9 hPa 0,0 l/m 0 min 2 min 153 W/m 19,3 km/h (3 Bft) 100,00 %
06.08.2023 12:00 16,5 C 15,6 C 11,7 C 93 % 1005,8 hPa 0,0 l/m 0 min 0 min 147 W/m 16,1 km/h (3 Bft) 100,00 %
06.08.2023 12:02 16,4 C 15,6 C 11,7 C 93 % 1005,9 hPa 0,0 l/m 0 min 0 min 155 W/m 16,1 km/h (3 Bft) 100,00 %
06.08.2023 12:04 16,4 C 15,6 C 11,7 C 94 % 1006,0 hPa 0,0 l/m 0 min 2 min 154 W/m 19,3 km/h (3 Bft) 100,00 %
06.08.2023 12:08 16,3 C 15,6 C 11,7 C 94 % 1006,0 hPa 0,0 l/m 0 min 4 min 106 W/m 22,5 km/h (4 Bft) 98,94 %
06.08.2023 12:10 16,2 C 15,6 C 11,7 C 94 % 1006,2 hPa 0,0 l/m 0 min 2 min 79 W/m 22,5 km/h (4 Bft) 100,00 %
06.08.2023 12:12 16,0 C 15,0 C 11,1 C 94 % 1006,1 hPa 0,0 l/m 0 min 2 min 94 W/m 22,5 km/h (4 Bft) 100,00 %
06.08.2023 12:14 16,0 C 15,0 C 11,1 C 94 % 1006,1 hPa 0,0 l/m 0 min 2 min 96 W/m 12,9 km/h (3 Bft) 100,00 %
06.08.2023 12:16 15,9 C 15,0 C 11,1 C 94 % 1006,2 hPa 0,0 l/m 0 min 0 min 93 W/m 16,1 km/h (3 Bft) 95,65 %
06.08.2023 12:18 15,9 C 15,0 C 11,1 C 94 % 1006,2 hPa 0,0 l/m 0 min 2 min 99 W/m 25,7 km/h (4 Bft) 97,87 %
06.08.2023 12:20 15,7 C 15,0 C 11,1 C 94 % 1006,2 hPa 0,0 l/m 0 min 2 min 115 W/m 32,2 km/h (5 Bft) 100,00 %
06.08.2023 12:22 15,6 C 15,0 C 11,1 C 94 % 1006,2 hPa 0,0 l/m 0 min 2 min 138 W/m 25,7 km/h (4 Bft) 100,00 %
06.08.2023 12:24 15,5 C 15,0 C 11,1 C 94 % 1006,2 hPa 0,0 l/m 0 min 2 min 163 W/m 35,4 km/h (5 Bft) 100,00 %
06.08.2023 12:26 15,4 C 14,4 C 11,1 C 94 % 1006,2 hPa 0,0 l/m 0 min 2 min 152 W/m 16,1 km/h (3 Bft) 100,00 %
06.08.2023 12:28 15,3 C 14,4 C 10,6 C 95 % 1006,3 hPa 0,2 l/m 0 min 2 min 169 W/m 25,7 km/h (4 Bft) 95,74 %
06.08.2023 12:30 15,3 C 14,4 C 10,6 C 95 % 1006,3 hPa 0,2 l/m 0 min 2 min 195 W/m 29,0 km/h (5 Bft) 100,00 %
06.08.2023 12:32 15,3 C 14,4 C 10,6 C 95 % 1006,2 hPa 0,2 l/m 0 min 2 min 217 W/m 19,3 km/h (3 Bft) 100,00 %
06.08.2023 12:34 15,2 C 14,4 C 10,6 C 95 % 1006,2 hPa 0,0 l/m 0 min 2 min 225 W/m 16,1 km/h (3 Bft) 97,83 %
06.08.2023 12:36 15,2 C 14,4 C 10,6 C 95 % 1006,2 hPa 0,2 l/m 0 min 2 min 219 W/m 19,3 km/h (3 Bft) 100,00 %
06.08.2023 12:38 15,2 C 14,4 C 10,6 C 95 % 1006,2 hPa 0,0 l/m 0 min 2 min 198 W/m 16,1 km/h (3 Bft) 97,87 %
06.08.2023 12:40 15,1 C 14,4 C 10,6 C 96 % 1006,4 hPa 0,2 l/m 0 min 2 min 185 W/m 32,2 km/h (5 Bft) 100,00 %
06.08.2023 12:42 15,0 C 14,4 C 10,6 C 96 % 1006,3 hPa 0,0 l/m 0 min 2 min 185 W/m 12,9 km/h (3 Bft) 100,00 %
06.08.2023 12:44 15,0 C 14,4 C 10,6 C 96 % 1006,4 hPa 0,2 l/m 0 min 2 min 191 W/m 19,3 km/h (3 Bft) 97,87 %
06.08.2023 12:46 14,9 C 14,4 C 10,6 C 96 % 1006,4 hPa 0,0 l/m 0 min 2 min 191 W/m 22,5 km/h (4 Bft) 97,87 %
06.08.2023 12:48 14,9 C 14,4 C 10,6 C 96 % 1006,4 hPa 0,2 l/m 0 min 2 min 207 W/m 25,7 km/h (4 Bft) 97,87 %
06.08.2023 12:50 15,0 C 14,4 C 10,6 C 96 % 1006,5 hPa 0,2 l/m 0 min 2 min 219 W/m 16,1 km/h (3 Bft) 97,83 %
06.08.2023 12:52 15,0 C 14,4 C 10,6 C 96 % 1006,6 hPa 0,0 l/m 0 min 2 min 202 W/m 16,1 km/h (3 Bft) 97,87 %
06.08.2023 12:54 15,0 C 14,4 C 10,6 C 96 % 1006,6 hPa 0,2 l/m 0 min 2 min 191 W/m 25,7 km/h (4 Bft) 95,74 %
06.08.2023 12:56 15,1 C 14,4 C 10,6 C 96 % 1006,6 hPa 0,0 l/m 0 min 2 min 204 W/m 16,1 km/h (3 Bft) 97,87 %
06.08.2023 12:58 15,1 C 14,4 C 11,1 C 96 % 1006,6 hPa 0,2 l/m 0 min 2 min 208 W/m 16,1 km/h (3 Bft) 97,87 %
06.08.2023 13:00 15,1 C 14,4 C 11,1 C 97 % 1006,5 hPa 0,0 l/m 0 min 2 min 205 W/m 16,1 km/h (3 Bft) 95,74 %
06.08.2023 13:02 15,2 C 15,0 C 11,1 C 97 % 1006,5 hPa 0,0 l/m 0 min 0 min 236 W/m 9,7 km/h (2 Bft) 97,87 %
06.08.2023 13:04 15,2 C 15,0 C 11,1 C 97 % 1006,5 hPa 0,0 l/m 0 min 2 min 226 W/m 16,1 km/h (3 Bft) 95,83 %
06.08.2023 13:06 15,3 C 15,0 C 11,1 C 97 % 1006,5 hPa 0,0 l/m 0 min 2 min 190 W/m 19,3 km/h (3 Bft) 98,31 %
06.08.2023 13:08 15,3 C 15,0 C 11,1 C 97 % 1006,5 hPa 0,0 l/m 0 min 2 min 173 W/m 16,1 km/h (3 Bft) 94,29 %
06.08.2023 13:10 15,3 C 15,0 C 11,1 C 97 % 1006,5 hPa 0,0 l/m 0 min 2 min 211 W/m 9,7 km/h (2 Bft) 95,74 %
06.08.2023 13:12 15,3 C 15,0 C 11,1 C 97 % 1006,6 hPa 0,0 l/m 0 min 2 min 211 W/m 19,3 km/h (3 Bft) 95,74 %
06.08.2023 13:14 15,3 C 15,0 C 11,1 C 97 % 1006,7 hPa 0,0 l/m 0 min 2 min 221 W/m 19,3 km/h (3 Bft) 93,62 %
06.08.2023 13:16 15,3 C 15,0 C 11,1 C 97 % 1006,6 hPa 0,0 l/m 0 min 2 min 220 W/m 22,5 km/h (4 Bft) 95,74 %
06.08.2023 13:18 15,3 C 15,0 C 11,1 C 97 % 1006,6 hPa 0,0 l/m 0 min 2 min 159 W/m 16,1 km/h (3 Bft) 93,48 %
06.08.2023 13:20 15,2 C 14,4 C 10,6 C 97 % 1006,6 hPa 0,0 l/m 0 min 2 min 158 W/m 32,2 km/h (5 Bft) 97,87 %
06.08.2023 13:22 15,2 C 14,4 C 10,6 C 97 % 1006,6 hPa 0,0 l/m 0 min 2 min 125 W/m 22,5 km/h (4 Bft) 95,74 %
06.08.2023 13:24 15,1 C 14,4 C 10,6 C 97 % 1006,7 hPa 0,2 l/m 0 min 2 min 109 W/m 19,3 km/h (3 Bft) 93,62 %
06.08.2023 13:26 15,1 C 14,4 C 10,6 C 97 % 1006,7 hPa 0,0 l/m 0 min 2 min 98 W/m 25,7 km/h (4 Bft) 95,74 %
06.08.2023 13:28 15,1 C 14,4 C 10,6 C 97 % 1006,6 hPa 0,0 l/m 0 min 2 min 100 W/m 22,5 km/h (4 Bft) 95,74 %
06.08.2023 13:30 15,0 C 14,4 C 10,6 C 97 % 1006,7 hPa 0,0 l/m 0 min 2 min 109 W/m 19,3 km/h (3 Bft) 95,74 %
06.08.2023 13:32 15,1 C 14,4 C 10,6 C 97 % 1006,7 hPa 0,0 l/m 0 min 2 min 161 W/m 12,9 km/h (3 Bft) 95,74 %
06.08.2023 13:34 15,1 C 14,4 C 10,6 C 97 % 1006,7 hPa 0,0 l/m 0 min 2 min 156 W/m 16,1 km/h (3 Bft) 93,48 %
06.08.2023 13:36 15,1 C 14,4 C 10,6 C 97 % 1006,7 hPa 0,0 l/m 0 min 2 min 124 W/m 19,3 km/h (3 Bft) 95,74 %
06.08.2023 13:38 15,1 C 14,4 C 11,1 C 97 % 1006,7 hPa 0,0 l/m 0 min 2 min 180 W/m 22,5 km/h (4 Bft) 95,74 %
06.08.2023 13:40 15,1 C 15,0 C 11,1 C 97 % 1006,8 hPa 0,0 l/m 0 min 2 min 184 W/m 19,3 km/h (3 Bft) 95,74 %
06.08.2023 13:42 15,2 C 15,0 C 11,1 C 97 % 1006,8 hPa 0,0 l/m 0 min 2 min 204 W/m 25,7 km/h (4 Bft) 93,62 %
06.08.2023 13:44 15,2 C 15,0 C 11,1 C 97 % 1006,8 hPa 0,0 l/m 0 min 2 min 205 W/m 29,0 km/h (5 Bft) 95,74 %
06.08.2023 13:46 15,2 C 15,0 C 11,1 C 98 % 1007,0 hPa 0,0 l/m 0 min 2 min 197 W/m 22,5 km/h (4 Bft) 93,48 %
06.08.2023 13:48 15,2 C 15,0 C 11,1 C 98 % 1007,0 hPa 0,0 l/m 0 min 2 min 150 W/m 19,3 km/h (3 Bft) 95,74 %
06.08.2023 13:50 15,2 C 15,0 C 11,1 C 98 % 1006,9 hPa 0,0 l/m 0 min 2 min 155 W/m 12,9 km/h (3 Bft) 95,74 %
06.08.2023 13:52 15,2 C 15,0 C 11,1 C 98 % 1006,9 hPa 0,0 l/m 0 min 2 min 149 W/m 19,3 km/h (3 Bft) 95,74 %
06.08.2023 13:54 15,2 C 14,4 C 11,1 C 98 % 1006,9 hPa 0,2 l/m 0 min 2 min 122 W/m 22,5 km/h (4 Bft) 95,74 %
06.08.2023 13:56 15,2 C 14,4 C 11,1 C 98 % 1007,0 hPa 0,0 l/m 0 min 2 min 126 W/m 16,1 km/h (3 Bft) 95,74 %
06.08.2023 13:58 15,2 C 14,4 C 11,1 C 98 % 1006,9 hPa 0,0 l/m 0 min 2 min 135 W/m 16,1 km/h (3 Bft) 97,87 %
06.08.2023 14:00 15,2 C 14,4 C 11,1 C 98 % 1007,0 hPa 0,0 l/m 0 min 2 min 143 W/m 16,1 km/h (3 Bft) 97,83 %
06.08.2023 14:02 15,2 C 15,0 C 11,1 C 98 % 1007,0 hPa 0,0 l/m 0 min 2 min 160 W/m 12,9 km/h (3 Bft) 95,74 %
06.08.2023 14:04 15,2 C 15,0 C 11,1 C 98 % 1007,0 hPa 0,0 l/m 0 min 0 min 182 W/m 12,9 km/h (3 Bft) 97,92 %
06.08.2023 14:06 15,3 C 15,0 C 11,1 C 98 % 1007,1 hPa 0,0 l/m 0 min 0 min 207 W/m 16,1 km/h (3 Bft) 97,92 %
06.08.2023 14:08 15,2 C 15,0 C 11,1 C 98 % 1007,1 hPa 0,0 l/m 0 min 2 min 200 W/m 16,1 km/h (3 Bft) 97,87 %
06.08.2023 14:10 15,2 C 15,0 C 11,1 C 98 % 1007,1 hPa 0,0 l/m 0 min 2 min 192 W/m 25,7 km/h (4 Bft) 97,87 %
06.08.2023 14:12 15,2 C 15,0 C 11,1 C 98 % 1007,1 hPa 0,0 l/m 0 min 2 min 227 W/m 16,1 km/h (3 Bft) 95,74 %
06.08.2023 14:14 15,3 C 15,0 C 11,1 C 98 % 1007,2 hPa 0,0 l/m 0 min 2 min 249 W/m 25,7 km/h (4 Bft) 95,74 %
06.08.2023 14:16 15,3 C 15,6 C 11,1 C 98 % 1007,1 hPa 0,0 l/m 0 min 2 min 247 W/m 22,5 km/h (4 Bft) 100,00 %
06.08.2023 14:18 15,3 C 15,6 C 11,1 C 98 % 1007,1 hPa 0,0 l/m 0 min 2 min 226 W/m 19,3 km/h (3 Bft) 100,00 %
06.08.2023 14:20 15,3 C 15,6 C 11,1 C 98 % 1007,1 hPa 0,0 l/m 0 min 2 min 242 W/m 29,0 km/h (5 Bft) 100,00 %
06.08.2023 14:22 15,4 C 15,6 C 11,1 C 98 % 1007,2 hPa 0,0 l/m 0 min 2 min 230 W/m 12,9 km/h (3 Bft) 97,87 %
06.08.2023 14:24 15,4 C 15,6 C 11,1 C 98 % 1007,1 hPa 0,0 l/m 0 min 2 min 221 W/m 25,7 km/h (4 Bft) 100,00 %
06.08.2023 14:26 15,5 C 15,6 C 11,1 C 98 % 1007,1 hPa 0,0 l/m 0 min 2 min 217 W/m 12,9 km/h (3 Bft) 100,00 %
06.08.2023 14:28 15,5 C 15,6 C 11,1 C 98 % 1007,2 hPa 0,0 l/m 0 min 2 min 252 W/m 16,1 km/h (3 Bft) 97,83 %
06.08.2023 14:30 15,5 C 15,6 C 11,1 C 98 % 1007,2 hPa 0,0 l/m 0 min 2 min 261 W/m 22,5 km/h (4 Bft) 100,00 %
06.08.2023 14:32 15,5 C 15,6 C 11,1 C 98 % 1007,2 hPa 0,0 l/m 0 min 2 min 231 W/m 16,1 km/h (3 Bft) 100,00 %
06.08.2023 14:34 15,5 C 15,6 C 11,1 C 98 % 1007,2 hPa 0,0 l/m 0 min 2 min 208 W/m 25,7 km/h (4 Bft) 100,00 %
06.08.2023 14:36 15,4 C 15,6 C 11,1 C 97 % 1007,3 hPa 0,0 l/m 0 min 2 min 209 W/m 22,5 km/h (4 Bft) 97,87 %
06.08.2023 14:38 15,4 C 15,6 C 11,1 C 97 % 1007,4 hPa 0,0 l/m 0 min 2 min 235 W/m 25,7 km/h (4 Bft) 97,87 %
06.08.2023 14:40 15,4 C 15,6 C 11,1 C 97 % 1007,5 hPa 0,0 l/m 0 min 2 min 266 W/m 32,2 km/h (5 Bft) 100,00 %
06.08.2023 14:42 15,4 C 15,6 C 11,1 C 97 % 1007,3 hPa 0,0 l/m 0 min 2 min 276 W/m 19,3 km/h (3 Bft) 95,65 %
06.08.2023 14:44 15,4 C 15,6 C 11,1 C 97 % 1007,4 hPa 0,0 l/m 0 min 2 min 261 W/m 19,3 km/h (3 Bft) 97,87 %
06.08.2023 14:46 15,4 C 15,6 C 11,1 C 97 % 1007,4 hPa 0,0 l/m 0 min 2 min 235 W/m 25,7 km/h (4 Bft) 95,74 %
06.08.2023 14:48 15,4 C 15,6 C 11,1 C 97 % 1007,4 hPa 0,0 l/m 0 min 2 min 239 W/m 22,5 km/h (4 Bft) 97,87 %
06.08.2023 14:50 15,4 C 15,6 C 11,1 C 97 % 1007,4 hPa 0,0 l/m 0 min 2 min 275 W/m 22,5 km/h (4 Bft) 97,87 %
06.08.2023 14:52 15,4 C 15,6 C 11,1 C 97 % 1007,5 hPa 0,0 l/m 0 min 2 min 280 W/m 32,2 km/h (5 Bft) 97,87 %
06.08.2023 14:54 15,4 C 15,6 C 11,1 C 97 % 1007,5 hPa 0,2 l/m 0 min 2 min 278 W/m 29,0 km/h (5 Bft) 97,87 %
06.08.2023 14:56 15,4 C 15,6 C 11,1 C 97 % 1007,5 hPa 0,0 l/m 0 min 2 min 262 W/m 19,3 km/h (3 Bft) 95,65 %
06.08.2023 14:58 15,4 C 15,6 C 11,1 C 97 % 1007,6 hPa 0,0 l/m 0 min 2 min 231 W/m 35,4 km/h (5 Bft) 97,87 %
06.08.2023 15:00 15,4 C 15,0 C 11,1 C 96 % 1007,6 hPa 0,0 l/m 0 min 2 min 208 W/m 25,7 km/h (4 Bft) 57,45 %
06.08.2023 15:02 15,4 C 15,0 C 11,1 C 96 % 1007,7 hPa 0,0 l/m 0 min 2 min 196 W/m 25,7 km/h (4 Bft) 95,74 %
06.08.2023 15:04 15,3 C 15,0 C 11,1 C 96 % 1007,6 hPa 0,2 l/m 0 min 2 min 181 W/m 35,4 km/h (5 Bft) 97,96 %
06.08.2023 15:06 15,3 C 15,0 C 11,1 C 96 % 1007,8 hPa 0,0 l/m 0 min 2 min 174 W/m 19,3 km/h (3 Bft) 97,87 %
06.08.2023 15:08 15,3 C 15,0 C 11,1 C 96 % 1007,8 hPa 0,0 l/m 0 min 2 min 171 W/m 12,9 km/h (3 Bft) 95,74 %
06.08.2023 15:10 15,2 C 15,0 C 10,6 C 96 % 1007,9 hPa 0,0 l/m 0 min 2 min 166 W/m 25,7 km/h (4 Bft) 97,83 %
06.08.2023 15:12 15,2 C 14,4 C 10,6 C 96 % 1007,7 hPa 0,0 l/m 0 min 2 min 162 W/m 25,7 km/h (4 Bft) 100,00 %
06.08.2023 15:14 15,2 C 14,4 C 10,6 C 96 % 1007,7 hPa 0,2 l/m 0 min 2 min 161 W/m 29,0 km/h (5 Bft) 100,00 %
06.08.2023 15:16 15,2 C 14,4 C 10,6 C 96 % 1007,9 hPa 0,0 l/m 0 min 2 min 161 W/m 22,5 km/h (4 Bft) 100,00 %
06.08.2023 15:18 15,2 C 14,4 C 10,6 C 96 % 1007,9 hPa 0,2 l/m 0 min 2 min 160 W/m 25,7 km/h (4 Bft) 97,87 %
06.08.2023 15:20 15,1 C 14,4 C 10,6 C 96 % 1007,9 hPa 0,0 l/m 0 min 2 min 160 W/m 25,7 km/h (4 Bft) 100,00 %
06.08.2023 15:22 15,1 C 14,4 C 10,6 C 96 % 1007,9 hPa 0,0 l/m 0 min 2 min 161 W/m 29,0 km/h (5 Bft) 100,00 %
06.08.2023 15:24 15,1 C 14,4 C 10,6 C 96 % 1007,9 hPa 0,0 l/m 0 min 2 min 164 W/m 19,3 km/h (3 Bft) 100,00 %
06.08.2023 15:26 15,1 C 14,4 C 11,1 C 96 % 1007,9 hPa 0,0 l/m 0 min 2 min 171 W/m 19,3 km/h (3 Bft) 100,00 %
06.08.2023 15:28 15,1 C 14,4 C 11,1 C 96 % 1007,9 hPa 0,2 l/m 0 min 2 min 177 W/m 19,3 km/h (3 Bft) 97,87 %
06.08.2023 15:30 15,1 C 14,4 C 11,1 C 97 % 1007,9 hPa 0,0 l/m 0 min 2 min 187 W/m 16,1 km/h (3 Bft) 100,00 %
06.08.2023 15:32 15,2 C 15,0 C 11,1 C 97 % 1008,0 hPa 0,0 l/m 0 min 2 min 194 W/m 12,9 km/h (3 Bft) 100,00 %
06.08.2023 15:34 15,2 C 15,0 C 11,1 C 97 % 1007,9 hPa 0,2 l/m 0 min 2 min 204 W/m 16,1 km/h (3 Bft) 100,00 %
06.08.2023 15:36 15,2 C 15,0 C 11,1 C 97 % 1008,0 hPa 0,0 l/m 0 min 2 min 211 W/m 19,3 km/h (3 Bft) 100,00 %
06.08.2023 15:38 15,3 C 15,0 C 11,1 C 97 % 1008,0 hPa 0,0 l/m 0 min 2 min 213 W/m 16,1 km/h (3 Bft) 100,00 %
06.08.2023 15:40 15,3 C 15,0 C 11,1 C 97 % 1008,1 hPa 0,0 l/m 0 min 2 min 210 W/m 19,3 km/h (3 Bft) 97,87 %
06.08.2023 15:42 15,3 C 15,0 C 11,1 C 97 % 1008,0 hPa 0,0 l/m 0 min 2 min 206 W/m 16,1 km/h (3 Bft) 100,00 %
06.08.2023 15:44 15,3 C 15,0 C 11,1 C 97 % 1008,0 hPa 0,0 l/m 0 min 2 min 206 W/m 19,3 km/h (3 Bft) 100,00 %
06.08.2023 15:46 15,3 C 15,0 C 11,1 C 97 % 1008,1 hPa 0,2 l/m 0 min 2 min 212 W/m 22,5 km/h (4 Bft) 100,00 %
06.08.2023 15:48 15,3 C 15,0 C 11,1 C 97 % 1008,1 hPa 0,0 l/m 0 min 2 min 223 W/m 16,1 km/h (3 Bft) 100,00 %
06.08.2023 15:50 15,4 C 15,6 C 11,1 C 97 % 1008,1 hPa 0,0 l/m 0 min 2 min 231 W/m 16,1 km/h (3 Bft) 100,00 %
06.08.2023 15:52 15,4 C 15,6 C 11,7 C 97 % 1008,1 hPa 0,2 l/m 0 min 2 min 248 W/m 16,1 km/h (3 Bft) 100,00 %
06.08.2023 15:54 15,4 C 15,6 C 11,1 C 97 % 1008,1 hPa 0,0 l/m 0 min 2 min 261 W/m 16,1 km/h (3 Bft) 100,00 %
06.08.2023 15:56 15,4 C 15,6 C 11,1 C 97 % 1008,1 hPa 0,0 l/m 0 min 2 min 261 W/m 22,5 km/h (4 Bft) 97,87 %
06.08.2023 15:58 15,4 C 15,6 C 11,1 C 97 % 1008,2 hPa 0,0 l/m 0 min 2 min 256 W/m 22,5 km/h (4 Bft) 97,87 %
06.08.2023 16:00 15,4 C 15,6 C 11,1 C 97 % 1008,2 hPa 0,0 l/m 0 min 2 min 259 W/m 19,3 km/h (3 Bft) 93,62 %
06.08.2023 16:02 15,4 C 15,6 C 11,7 C 97 % 1008,2 hPa 0,2 l/m 0 min 2 min 268 W/m 16,1 km/h (3 Bft) 97,87 %
06.08.2023 16:04 15,4 C 15,6 C 11,1 C 97 % 1008,5 hPa 0,0 l/m 0 min 2 min 260 W/m 19,3 km/h (3 Bft) 97,87 %
06.08.2023 16:06 15,4 C 15,6 C 11,1 C 97 % 1008,3 hPa 0,0 l/m 0 min 2 min 242 W/m 16,1 km/h (3 Bft) 98,31 %
06.08.2023 16:08 15,4 C 15,6 C 11,1 C 97 % 1008,4 hPa 0,0 l/m 0 min 2 min 223 W/m 22,5 km/h (4 Bft) 91,43 %
06.08.2023 16:10 15,5 C 15,6 C 11,1 C 97 % 1008,4 hPa 0,2 l/m 0 min 2 min 212 W/m 16,1 km/h (3 Bft) 97,87 %
06.08.2023 16:12 15,5 C 15,0 C 11,1 C 97 % 1008,3 hPa 0,0 l/m 0 min 2 min 207 W/m 16,1 km/h (3 Bft) 97,87 %
06.08.2023 16:14 15,5 C 15,0 C 11,1 C 97 % 1008,4 hPa 0,0 l/m 0 min 2 min 209 W/m 16,1 km/h (3 Bft) 97,87 %
06.08.2023 16:16 15,4 C 15,0 C 11,1 C 97 % 1008,4 hPa 0,0 l/m 0 min 2 min 208 W/m 19,3 km/h (3 Bft) 95,74 %
06.08.2023 16:18 15,4 C 15,0 C 11,1 C 97 % 1008,4 hPa 0,0 l/m 0 min 2 min 207 W/m 25,7 km/h (4 Bft) 95,74 %
06.08.2023 16:20 15,4 C 15,0 C 11,1 C 97 % 1008,4 hPa 0,0 l/m 0 min 2 min 206 W/m 12,9 km/h (3 Bft) 95,74 %
06.08.2023 16:22 15,4 C 15,0 C 11,1 C 97 % 1008,5 hPa 0,0 l/m 0 min 2 min 209 W/m 19,3 km/h (3 Bft) 95,65 %
06.08.2023 16:24 15,4 C 15,6 C 11,1 C 97 % 1008,5 hPa 0,2 l/m 0 min 2 min 211 W/m 12,9 km/h (3 Bft) 95,74 %
06.08.2023 16:26 15,4 C 15,0 C 11,1 C 97 % 1008,5 hPa 0,0 l/m 0 min 2 min 205 W/m 25,7 km/h (4 Bft) 93,62 %
06.08.2023 16:28 15,4 C 15,0 C 11,1 C 97 % 1008,5 hPa 0,0 l/m 0 min 2 min 200 W/m 16,1 km/h (3 Bft) 94,74 %
06.08.2023 16:30 15,4 C 15,0 C 11,1 C 97 % 1008,6 hPa 0,0 l/m 0 min 2 min 199 W/m 22,5 km/h (4 Bft) 96,43 %
06.08.2023 16:32 15,4 C 15,6 C 11,1 C 97 % 1008,6 hPa 0,0 l/m 0 min 2 min 197 W/m 12,9 km/h (3 Bft) 95,74 %
06.08.2023 16:34 15,4 C 15,0 C 11,1 C 97 % 1008,7 hPa 0,0 l/m 0 min 2 min 199 W/m 19,3 km/h (3 Bft) 93,62 %
06.08.2023 16:36 15,4 C 15,0 C 11,1 C 97 % 1008,6 hPa 0,0 l/m 0 min 2 min 203 W/m 9,7 km/h (2 Bft) 93,48 %
06.08.2023 16:38 15,4 C 15,0 C 11,1 C 97 % 1008,7 hPa 0,0 l/m 0 min 2 min 209 W/m 16,1 km/h (3 Bft) 91,49 %
06.08.2023 16:40 15,4 C 15,0 C 11,1 C 97 % 1008,7 hPa 0,0 l/m 0 min 2 min 216 W/m 16,1 km/h (3 Bft) 93,62 %
06.08.2023 16:42 15,4 C 15,6 C 11,1 C 97 % 1008,7 hPa 0,0 l/m 0 min 2 min 218 W/m 12,9 km/h (3 Bft) 93,62 %
06.08.2023 16:44 15,4 C 15,6 C 11,1 C 97 % 1008,7 hPa 0,0 l/m 0 min 2 min 220 W/m 12,9 km/h (3 Bft) 95,74 %
06.08.2023 16:46 15,5 C 15,6 C 11,7 C 97 % 1008,7 hPa 0,0 l/m 0 min 2 min 222 W/m 12,9 km/h (3 Bft) 93,62 %
06.08.2023 16:48 15,6 C 15,6 C 11,7 C 97 % 1008,8 hPa 0,0 l/m 0 min 2 min 235 W/m 19,3 km/h (3 Bft) 91,49 %
06.08.2023 16:50 15,6 C 15,6 C 11,7 C 97 % 1008,8 hPa 0,0 l/m 0 min 2 min 237 W/m 12,9 km/h (3 Bft) 95,65 %
06.08.2023 16:52 15,6 C 15,6 C 11,7 C 98 % 1008,7 hPa 0,0 l/m 0 min 2 min 234 W/m 12,9 km/h (3 Bft) 93,62 %
06.08.2023 16:54 15,6 C 15,6 C 11,7 C 98 % 1008,7 hPa 0,2 l/m 0 min 2 min 212 W/m 12,9 km/h (3 Bft) 95,74 %
06.08.2023 16:56 15,6 C 15,6 C 11,7 C 98 % 1008,8 hPa 0,0 l/m 0 min 2 min 190 W/m 16,1 km/h (3 Bft) 93,62 %
06.08.2023 16:58 15,6 C 15,6 C 11,1 C 98 % 1008,9 hPa 0,0 l/m 0 min 2 min 167 W/m 22,5 km/h (4 Bft) 93,62 %
06.08.2023 17:00 15,6 C 15,6 C 11,7 C 97 % 1008,8 hPa 0,0 l/m 0 min 2 min 157 W/m 12,9 km/h (3 Bft) 95,74 %
06.08.2023 17:02 15,6 C 15,6 C 11,1 C 97 % 1008,8 hPa 0,0 l/m 0 min 2 min 184 W/m 19,3 km/h (3 Bft) 93,62 %
06.08.2023 17:04 15,6 C 15,6 C 11,1 C 97 % 1008,8 hPa 0,0 l/m 0 min 2 min 184 W/m 22,5 km/h (4 Bft) 95,74 %
06.08.2023 17:06 15,6 C 15,6 C 11,1 C 97 % 1008,9 hPa 0,0 l/m 0 min 2 min 171 W/m 9,7 km/h (2 Bft) 95,65 %
06.08.2023 17:08 15,6 C 15,6 C 11,7 C 97 % 1008,9 hPa 0,0 l/m 0 min 2 min 154 W/m 6,4 km/h (2 Bft) 95,74 %
06.08.2023 17:10 15,6 C 15,6 C 11,7 C 97 % 1008,9 hPa 0,0 l/m 0 min 2 min 144 W/m 12,9 km/h (3 Bft) 100,00 %
06.08.2023 17:12 15,7 C 15,6 C 11,7 C 97 % 1008,9 hPa 0,0 l/m 0 min 2 min 115 W/m 6,4 km/h (2 Bft) 97,87 %
06.08.2023 17:14 15,7 C 15,6 C 11,7 C 97 % 1008,9 hPa 0,0 l/m 0 min 0 min 120 W/m 12,9 km/h (3 Bft) 100,00 %
06.08.2023 17:16 15,7 C 15,6 C 11,7 C 97 % 1008,9 hPa 0,0 l/m 0 min 2 min 100 W/m 16,1 km/h (3 Bft) 100,00 %
06.08.2023 17:18 15,7 C 15,0 C 11,1 C 97 % 1009,0 hPa 0,0 l/m 0 min 2 min 87 W/m 16,1 km/h (3 Bft) 100,00 %
06.08.2023 17:20 15,6 C 15,0 C 11,1 C 97 % 1009,0 hPa 0,0 l/m 0 min 2 min 121 W/m 12,9 km/h (3 Bft) 100,00 %
06.08.2023 17:22 15,6 C 15,0 C 11,1 C 97 % 1009,1 hPa 0,0 l/m 0 min 2 min 109 W/m 12,9 km/h (3 Bft) 95,74 %
06.08.2023 17:24 15,6 C 15,0 C 11,7 C 97 % 1009,1 hPa 0,0 l/m 0 min 2 min 98 W/m 19,3 km/h (3 Bft) 95,74 %
06.08.2023 17:26 15,6 C 15,0 C 11,1 C 97 % 1009,3 hPa 0,0 l/m 0 min 2 min 95 W/m 19,3 km/h (3 Bft) 100,00 %
06.08.2023 17:28 15,6 C 15,0 C 11,1 C 97 % 1009,2 hPa 0,0 l/m 0 min 2 min 110 W/m 6,4 km/h (2 Bft) 100,00 %
06.08.2023 17:30 15,6 C 15,0 C 11,1 C 97 % 1009,3 hPa 0,2 l/m 0 min 2 min 124 W/m 16,1 km/h (3 Bft) 100,00 %
06.08.2023 17:32 15,5 C 15,0 C 11,1 C 97 % 1009,3 hPa 0,0 l/m 0 min 2 min 146 W/m 29,0 km/h (5 Bft) 97,87 %
06.08.2023 17:34 15,5 C 15,0 C 11,1 C 97 % 1009,3 hPa 0,0 l/m 0 min 2 min 162 W/m 9,7 km/h (2 Bft) 100,00 %
06.08.2023 17:36 15,4 C 15,0 C 11,1 C 97 % 1009,4 hPa 0,0 l/m 0 min 2 min 168 W/m 25,7 km/h (4 Bft) 100,00 %
06.08.2023 17:38 15,4 C 15,0 C 11,1 C 97 % 1009,3 hPa 0,0 l/m 0 min 2 min 164 W/m 16,1 km/h (3 Bft) 100,00 %
06.08.2023 17:40 15,4 C 15,6 C 11,1 C 97 % 1009,4 hPa 0,0 l/m 0 min 2 min 173 W/m 16,1 km/h (3 Bft) 97,87 %
06.08.2023 17:42 15,4 C 15,6 C 11,1 C 97 % 1009,4 hPa 0,0 l/m 0 min 2 min 160 W/m 16,1 km/h (3 Bft) 100,00 %
06.08.2023 17:44 15,4 C 15,6 C 11,1 C 97 % 1009,5 hPa 0,0 l/m 0 min 2 min 160 W/m 25,7 km/h (4 Bft) 100,00 %
06.08.2023 17:46 15,4 C 15,0 C 11,1 C 97 % 1009,5 hPa 0,0 l/m 0 min 2 min 147 W/m 12,9 km/h (3 Bft) 100,00 %
06.08.2023 17:48 15,4 C 15,0 C 11,1 C 97 % 1009,5 hPa 0,0 l/m 0 min 2 min 153 W/m 25,7 km/h (4 Bft) 100,00 %
06.08.2023 17:50 15,3 C 15,0 C 10,6 C 97 % 1009,6 hPa 0,0 l/m 0 min 2 min 153 W/m 22,5 km/h (4 Bft) 100,00 %
06.08.2023 17:52 15,3 C 15,0 C 10,6 C 97 % 1009,6 hPa 0,0 l/m 0 min 2 min 148 W/m 22,5 km/h (4 Bft) 100,00 %
06.08.2023 17:54 15,3 C 15,0 C 11,1 C 97 % 1009,7 hPa 0,0 l/m 0 min 2 min 139 W/m 25,7 km/h (4 Bft) 100,00 %
06.08.2023 17:56 15,2 C 15,0 C 11,1 C 97 % 1009,7 hPa 0,0 l/m 0 min 2 min 131 W/m 16,1 km/h (3 Bft) 100,00 %
06.08.2023 17:58 15,2 C 15,0 C 11,1 C 97 % 1009,8 hPa 0,0 l/m 0 min 2 min 127 W/m 22,5 km/h (4 Bft) 100,00 %
06.08.2023 18:00 15,2 C 15,0 C 10,6 C 97 % 1009,8 hPa 0,0 l/m 0 min 2 min 121 W/m 22,5 km/h (4 Bft) 100,00 %
06.08.2023 18:02 15,1 C 15,0 C 10,6 C 97 % 1009,8 hPa 0,0 l/m 0 min 2 min 121 W/m 25,7 km/h (4 Bft) 100,00 %
06.08.2023 18:04 15,1 C 15,0 C 10,6 C 97 % 1009,8 hPa 0,0 l/m 0 min 2 min 123 W/m 19,3 km/h (3 Bft) 100,00 %
06.08.2023 18:07 15,1 C 15,0 C 10,6 C 96 % 1009,8 hPa 0,0 l/m 0 min 3 min 116 W/m 22,5 km/h (4 Bft) 100,00 %
06.08.2023 18:08 15,1 C 15,0 C 10,6 C 96 % 1009,8 hPa 0,0 l/m 0 min 1 min 119 W/m 22,5 km/h (4 Bft) 100,00 %
06.08.2023 18:12 14,9 C 14,4 C 10,6 C 96 % 1009,9 hPa 0,0 l/m 0 min 4 min 97 W/m 25,7 km/h (4 Bft) 100,00 %
06.08.2023 18:14 14,9 C 14,4 C 10,6 C 96 % 1009,9 hPa 0,0 l/m 0 min 2 min 92 W/m 19,3 km/h (3 Bft) 100,00 %
06.08.2023 18:16 14,9 C 14,4 C 10,6 C 96 % 1009,9 hPa 0,0 l/m 0 min 2 min 88 W/m 22,5 km/h (4 Bft) 100,00 %
06.08.2023 18:18 14,8 C 14,4 C 10,6 C 96 % 1009,9 hPa 0,0 l/m 0 min 2 min 84 W/m 22,5 km/h (4 Bft) 97,83 %
06.08.2023 18:20 14,8 C 14,4 C 10,6 C 96 % 1010,0 hPa 0,0 l/m 0 min 2 min 79 W/m 16,1 km/h (3 Bft) 100,00 %
06.08.2023 18:22 14,8 C 14,4 C 10,6 C 96 % 1009,9 hPa 0,2 l/m 0 min 2 min 76 W/m 16,1 km/h (3 Bft) 97,87 %
06.08.2023 18:24 14,8 C 14,4 C 10,6 C 96 % 1009,9 hPa 0,0 l/m 0 min 2 min 71 W/m 19,3 km/h (3 Bft) 97,87 %
06.08.2023 18:26 14,8 C 14,4 C 10,0 C 96 % 1010,0 hPa 0,0 l/m 0 min 2 min 69 W/m 22,5 km/h (4 Bft) 100,00 %
06.08.2023 18:28 14,7 C 13,9 C 10,0 C 96 % 1010,0 hPa 0,0 l/m 0 min 2 min 66 W/m 16,1 km/h (3 Bft) 100,00 %
06.08.2023 18:30 14,7 C 13,9 C 10,6 C 96 % 1010,0 hPa 0,0 l/m 0 min 2 min 66 W/m 19,3 km/h (3 Bft) 97,87 %
06.08.2023 18:32 14,7 C 13,9 C 10,6 C 96 % 1010,0 hPa 0,0 l/m 0 min 2 min 68 W/m 12,9 km/h (3 Bft) 95,65 %
06.08.2023 18:34 14,7 C 13,9 C 10,6 C 96 % 1010,1 hPa 0,0 l/m 0 min 2 min 70 W/m 9,7 km/h (2 Bft) 97,87 %
06.08.2023 18:36 14,7 C 13,9 C 10,6 C 96 % 1010,1 hPa 0,2 l/m 0 min 2 min 75 W/m 22,5 km/h (4 Bft) 97,87 %
06.08.2023 18:38 14,7 C 14,4 C 10,6 C 96 % 1010,1 hPa 0,0 l/m 0 min 2 min 79 W/m 12,9 km/h (3 Bft) 95,74 %
06.08.2023 18:40 14,7 C 14,4 C 10,6 C 96 % 1010,1 hPa 0,0 l/m 0 min 2 min 83 W/m 16,1 km/h (3 Bft) 97,87 %
06.08.2023 18:42 14,8 C 14,4 C 10,6 C 96 % 1010,2 hPa 0,0 l/m 0 min 2 min 83 W/m 9,7 km/h (2 Bft) 95,74 %
06.08.2023 18:44 14,8 C 14,4 C 10,6 C 96 % 1010,2 hPa 0,0 l/m 0 min 2 min 81 W/m 12,9 km/h (3 Bft) 97,87 %
06.08.2023 18:46 14,8 C 14,4 C 10,6 C 96 % 1010,3 hPa 0,0 l/m 0 min 2 min 76 W/m 19,3 km/h (3 Bft) 97,83 %
06.08.2023 18:48 14,8 C 14,4 C 10,6 C 96 % 1010,3 hPa 0,0 l/m 0 min 2 min 71 W/m 9,7 km/h (2 Bft) 97,87 %
06.08.2023 18:50 14,8 C 14,4 C 10,6 C 96 % 1010,3 hPa 0,0 l/m 0 min 2 min 67 W/m 19,3 km/h (3 Bft) 95,74 %
06.08.2023 18:52 14,8 C 14,4 C 10,6 C 96 % 1010,3 hPa 0,0 l/m 0 min 2 min 63 W/m 9,7 km/h (2 Bft) 97,87 %
06.08.2023 18:54 14,9 C 14,4 C 10,6 C 96 % 1010,3 hPa 0,0 l/m 0 min 2 min 62 W/m 16,1 km/h (3 Bft) 93,62 %
06.08.2023 18:56 14,9 C 14,4 C 10,6 C 97 % 1010,3 hPa 0,0 l/m 0 min 2 min 62 W/m 12,9 km/h (3 Bft) 95,74 %
06.08.2023 18:58 14,9 C 14,4 C 10,6 C 97 % 1010,3 hPa 0,0 l/m 0 min 2 min 60 W/m 12,9 km/h (3 Bft) 93,62 %
06.08.2023 19:00 14,9 C 14,4 C 10,6 C 97 % 1010,3 hPa 0,0 l/m 0 min 2 min 62 W/m 12,9 km/h (3 Bft) 97,83 %
06.08.2023 19:02 14,9 C 14,4 C 10,6 C 97 % 1010,4 hPa 0,0 l/m 0 min 2 min 57 W/m 29,0 km/h (5 Bft) 95,74 %
06.08.2023 19:04 14,9 C 14,4 C 10,6 C 97 % 1010,4 hPa 0,2 l/m 0 min 2 min 40 W/m 12,9 km/h (3 Bft) 95,92 %
06.08.2023 19:06 14,9 C 14,4 C 10,6 C 97 % 1010,6 hPa 0,0 l/m 0 min 2 min 23 W/m 16,1 km/h (3 Bft) 97,87 %
06.08.2023 19:08 14,9 C 14,4 C 10,6 C 97 % 1010,4 hPa 0,0 l/m 0 min 2 min 32 W/m 12,9 km/h (3 Bft) 95,74 %
06.08.2023 19:10 14,9 C 13,9 C 10,6 C 97 % 1010,4 hPa 0,0 l/m 0 min 2 min 42 W/m 12,9 km/h (3 Bft) 93,62 %
06.08.2023 19:12 14,9 C 13,9 C 10,6 C 97 % 1010,5 hPa 0,0 l/m 0 min 2 min 24 W/m 16,1 km/h (3 Bft) 95,74 %
06.08.2023 19:14 14,9 C 13,9 C 10,6 C 97 % 1010,5 hPa 0,0 l/m 0 min 2 min 13 W/m 12,9 km/h (3 Bft) 93,48 %
06.08.2023 19:16 14,9 C 13,9 C 10,6 C 97 % 1010,5 hPa 0,4 l/m 0 min 2 min 18 W/m 16,1 km/h (3 Bft) 95,74 %
06.08.2023 19:18 14,8 C 13,9 C 10,6 C 97 % 1010,5 hPa 0,0 l/m 0 min 2 min 21 W/m 16,1 km/h (3 Bft) 93,62 %
06.08.2023 19:20 14,8 C 13,9 C 10,6 C 97 % 1010,5 hPa 0,4 l/m 0 min 2 min 22 W/m 19,3 km/h (3 Bft) 93,62 %
06.08.2023 19:22 14,8 C 13,9 C 10,6 C 97 % 1010,5 hPa 0,2 l/m 0 min 2 min 25 W/m 12,9 km/h (3 Bft) 93,62 %
06.08.2023 19:24 14,7 C 13,9 C 10,6 C 97 % 1010,5 hPa 0,0 l/m 0 min 2 min 27 W/m 16,1 km/h (3 Bft) 95,74 %
06.08.2023 19:26 14,7 C 13,9 C 10,6 C 97 % 1010,5 hPa 0,2 l/m 0 min 2 min 28 W/m 16,1 km/h (3 Bft) 87,23 %
06.08.2023 19:28 14,7 C 13,9 C 10,6 C 97 % 1010,6 hPa 0,0 l/m 0 min 2 min 32 W/m 16,1 km/h (3 Bft) 95,65 %
06.08.2023 19:30 14,7 C 13,9 C 10,6 C 97 % 1010,6 hPa 0,0 l/m 0 min 2 min 29 W/m 19,3 km/h (3 Bft) 93,62 %
06.08.2023 19:32 14,7 C 13,9 C 10,6 C 97 % 1010,7 hPa 0,2 l/m 0 min 2 min 30 W/m 25,7 km/h (4 Bft) 93,62 %
06.08.2023 19:34 14,6 C 13,9 C 10,6 C 97 % 1010,7 hPa 0,0 l/m 0 min 2 min 26 W/m 19,3 km/h (3 Bft) 91,49 %
06.08.2023 19:36 14,6 C 13,9 C 10,6 C 97 % 1010,7 hPa 0,0 l/m 0 min 2 min 27 W/m 29,0 km/h (5 Bft) 93,62 %
06.08.2023 19:38 14,6 C 13,9 C 10,6 C 97 % 1010,8 hPa 0,2 l/m 0 min 0 min 30 W/m 19,3 km/h (3 Bft) 93,62 %
06.08.2023 19:40 14,6 C 13,9 C 10,6 C 97 % 1010,8 hPa 0,0 l/m 0 min 2 min 30 W/m 25,7 km/h (4 Bft) 95,74 %
06.08.2023 19:42 14,5 C 13,9 C 10,6 C 97 % 1010,9 hPa 0,0 l/m 0 min 2 min 18 W/m 19,3 km/h (3 Bft) 95,65 %
06.08.2023 19:44 14,6 C 13,9 C 10,6 C 97 % 1010,9 hPa 0,0 l/m 0 min 2 min 15 W/m 16,1 km/h (3 Bft) 91,49 %
06.08.2023 19:46 14,5 C 13,9 C 10,6 C 97 % 1010,8 hPa 0,0 l/m 0 min 2 min 21 W/m 12,9 km/h (3 Bft) 97,87 %
06.08.2023 19:48 14,5 C 13,9 C 10,6 C 97 % 1010,9 hPa 0,0 l/m 0 min 2 min 18 W/m 16,1 km/h (3 Bft) 97,87 %
06.08.2023 19:50 14,4 C 13,9 C 10,6 C 97 % 1010,9 hPa 0,0 l/m 0 min 2 min 18 W/m 16,1 km/h (3 Bft) 95,74 %
06.08.2023 19:52 14,4 C 13,9 C 10,0 C 97 % 1011,0 hPa 0,0 l/m 0 min 2 min 15 W/m 45,1 km/h (6 Bft) 93,62 %
06.08.2023 19:54 14,4 C 13,9 C 10,6 C 97 % 1011,1 hPa 0,0 l/m 0 min 2 min 21 W/m 22,5 km/h (4 Bft) 97,87 %
06.08.2023 19:56 14,3 C 13,9 C 10,0 C 97 % 1011,0 hPa 0,0 l/m 0 min 2 min 22 W/m 22,5 km/h (4 Bft) 97,83 %
06.08.2023 19:58 14,3 C 13,3 C 10,0 C 97 % 1011,1 hPa 0,0 l/m 0 min 2 min 19 W/m 22,5 km/h (4 Bft) 100,00 %
06.08.2023 20:00 14,3 C 13,3 C 10,0 C 97 % 1011,1 hPa 0,0 l/m 0 min 2 min 19 W/m 19,3 km/h (3 Bft) 100,00 %
06.08.2023 20:02 14,3 C 13,3 C 10,0 C 98 % 1011,1 hPa 0,2 l/m 0 min 2 min 19 W/m 22,5 km/h (4 Bft) 95,74 %
06.08.2023 20:04 14,3 C 13,3 C 10,0 C 98 % 1011,2 hPa 0,0 l/m 0 min 2 min 16 W/m 29,0 km/h (5 Bft) 100,00 %
06.08.2023 20:06 14,3 C 13,3 C 10,0 C 98 % 1011,3 hPa 0,0 l/m 0 min 2 min 13 W/m 22,5 km/h (4 Bft) 100,00 %
06.08.2023 20:08 14,3 C 13,3 C 10,0 C 98 % 1011,3 hPa 0,0 l/m 0 min 2 min 15 W/m 25,7 km/h (4 Bft) 97,83 %
06.08.2023 20:10 14,3 C 13,3 C 10,0 C 98 % 1011,2 hPa 0,0 l/m 0 min 2 min 16 W/m 19,3 km/h (3 Bft) 100,00 %
06.08.2023 20:12 14,2 C 13,3 C 10,0 C 98 % 1011,3 hPa 0,0 l/m 0 min 2 min 15 W/m 22,5 km/h (4 Bft) 97,87 %
06.08.2023 20:14 14,2 C 13,3 C 10,0 C 98 % 1011,2 hPa 0,0 l/m 0 min 2 min 13 W/m 29,0 km/h (5 Bft) 95,74 %
06.08.2023 20:16 14,1 C 13,3 C 10,0 C 98 % 1011,4 hPa 0,0 l/m 0 min 2 min 14 W/m 19,3 km/h (3 Bft) 100,00 %
06.08.2023 20:18 14,1 C 13,3 C 10,0 C 97 % 1011,3 hPa 0,0 l/m 0 min 2 min 13 W/m 25,7 km/h (4 Bft) 97,87 %
06.08.2023 20:20 14,1 C 13,3 C 10,0 C 97 % 1011,4 hPa 0,0 l/m 0 min 2 min 13 W/m 25,7 km/h (4 Bft) 93,48 %
06.08.2023 20:22 14,1 C 13,3 C 10,0 C 97 % 1011,4 hPa 0,0 l/m 0 min 2 min 14 W/m 25,7 km/h (4 Bft) 97,87 %
06.08.2023 20:24 14,1 C 13,3 C 10,0 C 97 % 1011,5 hPa 0,0 l/m 0 min 2 min 13 W/m 22,5 km/h (4 Bft) 97,87 %
06.08.2023 20:26 14,1 C 13,3 C 10,0 C 97 % 1011,5 hPa 0,0 l/m 0 min 2 min 12 W/m 19,3 km/h (3 Bft) 95,74 %
06.08.2023 20:28 14,0 C 13,3 C 10,0 C 97 % 1011,5 hPa 0,0 l/m 0 min 2 min 12 W/m 22,5 km/h (4 Bft) 97,87 %
06.08.2023 20:30 14,0 C 13,3 C 10,0 C 98 % 1011,5 hPa 0,0 l/m 0 min 2 min 12 W/m 22,5 km/h (4 Bft) 97,87 %
06.08.2023 20:32 13,9 C 13,3 C 10,0 C 98 % 1011,5 hPa 0,0 l/m 0 min 2 min 12 W/m 25,7 km/h (4 Bft) 97,87 %
06.08.2023 20:34 13,9 C 13,3 C 10,0 C 98 % 1011,5 hPa 0,0 l/m 0 min 2 min 12 W/m 19,3 km/h (3 Bft) 95,65 %
06.08.2023 20:36 13,9 C 13,3 C 10,0 C 98 % 1011,5 hPa 0,2 l/m 0 min 2 min 14 W/m 29,0 km/h (5 Bft) 97,87 %
06.08.2023 20:38 13,9 C 13,3 C 10,0 C 98 % 1011,5 hPa 0,0 l/m 0 min 2 min 14 W/m 25,7 km/h (4 Bft) 97,87 %
06.08.2023 20:40 13,8 C 13,3 C 10,0 C 98 % 1011,5 hPa 0,0 l/m 0 min 2 min 14 W/m 29,0 km/h (5 Bft) 97,87 %
06.08.2023 20:42 13,8 C 13,3 C 10,0 C 98 % 1011,7 hPa 0,0 l/m 0 min 2 min 12 W/m 32,2 km/h (5 Bft) 95,74 %
06.08.2023 20:44 13,8 C 13,3 C 10,0 C 98 % 1011,5 hPa 0,0 l/m 0 min 2 min 12 W/m 19,3 km/h (3 Bft) 97,14 %
06.08.2023 20:46 13,8 C 13,3 C 10,0 C 97 % 1011,6 hPa 0,0 l/m 0 min 2 min 11 W/m 19,3 km/h (3 Bft) 95,74 %
06.08.2023 20:48 13,8 C 13,3 C 10,0 C 98 % 1011,6 hPa 0,0 l/m 0 min 2 min 11 W/m 19,3 km/h (3 Bft) 97,87 %
06.08.2023 20:50 13,8 C 13,3 C 10,0 C 98 % 1011,7 hPa 0,0 l/m 0 min 2 min 11 W/m 25,7 km/h (4 Bft) 100,00 %
06.08.2023 20:52 13,8 C 13,3 C 10,0 C 98 % 1011,7 hPa 0,0 l/m 0 min 2 min 11 W/m 22,5 km/h (4 Bft) 95,74 %
06.08.2023 20:54 13,8 C 13,3 C 10,0 C 98 % 1011,8 hPa 0,0 l/m 0 min 2 min 11 W/m 19,3 km/h (3 Bft) 100,00 %
06.08.2023 20:56 13,8 C 13,3 C 10,0 C 98 % 1011,8 hPa 0,0 l/m 0 min 2 min 9 W/m 25,7 km/h (4 Bft) 97,87 %
06.08.2023 20:58 13,8 C 13,3 C 10,0 C 98 % 1011,8 hPa 0,0 l/m 0 min 2 min 8 W/m 16,1 km/h (3 Bft) 95,74 %
06.08.2023 21:00 13,8 C 13,3 C 10,0 C 98 % 1011,8 hPa 0,0 l/m 0 min 2 min 6 W/m 16,1 km/h (3 Bft) 100,00 %
06.08.2023 21:02 13,8 C 13,3 C 10,0 C 98 % 1011,9 hPa 0,0 l/m 0 min 2 min 2 W/m 22,5 km/h (4 Bft) 100,00 %
06.08.2023 21:04 13,8 C 13,3 C 10,0 C 98 % 1011,9 hPa 0,0 l/m 0 min 2 min 0 W/m 12,9 km/h (3 Bft) 97,56 %
06.08.2023 21:06 13,8 C 13,3 C 10,0 C 98 % 1012,0 hPa 0,0 l/m 0 min 2 min 0 W/m 16,1 km/h (3 Bft) 100,00 %
06.08.2023 21:08 13,8 C 13,3 C 10,0 C 98 % 1012,0 hPa 0,0 l/m 0 min 2 min 0 W/m 19,3 km/h (3 Bft) 97,14 %
06.08.2023 21:10 13,8 C 12,8 C 10,0 C 98 % 1012,0 hPa 0,0 l/m 0 min 2 min 0 W/m 12,9 km/h (3 Bft) 98,18 %
06.08.2023 21:12 13,8 C 12,8 C 10,0 C 98 % 1012,1 hPa 0,0 l/m 0 min 2 min 0 W/m 16,1 km/h (3 Bft) 100,00 %
06.08.2023 21:14 13,7 C 12,8 C 10,0 C 98 % 1012,1 hPa 0,0 l/m 0 min 2 min 0 W/m 16,1 km/h (3 Bft) 100,00 %
06.08.2023 21:16 13,7 C 12,8 C 10,0 C 98 % 1012,1 hPa 0,0 l/m 0 min 2 min 0 W/m 22,5 km/h (4 Bft) 100,00 %
06.08.2023 21:18 13,7 C 12,8 C 9,4 C 98 % 1012,2 hPa 0,0 l/m 0 min 2 min 0 W/m 22,5 km/h (4 Bft) 100,00 %
06.08.2023 21:20 13,7 C 12,8 C 9,4 C 98 % 1012,2 hPa 0,0 l/m 0 min 2 min 0 W/m 16,1 km/h (3 Bft) 100,00 %
06.08.2023 21:22 13,7 C 12,8 C 9,4 C 98 % 1012,1 hPa 0,0 l/m 0 min 2 min 0 W/m 16,1 km/h (3 Bft) 97,87 %
06.08.2023 21:24 13,6 C 12,8 C 9,4 C 98 % 1012,2 hPa 0,0 l/m 0 min 2 min 0 W/m 12,9 km/h (3 Bft) 97,87 %
06.08.2023 21:26 13,6 C 12,8 C 9,4 C 98 % 1012,2 hPa 0,0 l/m 0 min 2 min 0 W/m 19,3 km/h (3 Bft) 100,00 %
06.08.2023 21:28 13,6 C 12,8 C 9,4 C 98 % 1012,3 hPa 0,0 l/m 0 min 2 min 0 W/m 16,1 km/h (3 Bft) 100,00 %
06.08.2023 21:30 13,6 C 12,8 C 9,4 C 98 % 1012,3 hPa 0,0 l/m 0 min 2 min 0 W/m 32,2 km/h (5 Bft) 97,87 %
06.08.2023 21:32 13,6 C 12,8 C 9,4 C 98 % 1012,3 hPa 0,0 l/m 0 min 2 min 0 W/m 22,5 km/h (4 Bft) 97,83 %
06.08.2023 21:34 13,6 C 12,8 C 9,4 C 98 % 1012,4 hPa 0,0 l/m 0 min 2 min 0 W/m 19,3 km/h (3 Bft) 97,87 %
06.08.2023 21:36 13,6 C 12,8 C 9,4 C 98 % 1012,3 hPa 0,0 l/m 0 min 2 min 0 W/m 12,9 km/h (3 Bft) 97,87 %
06.08.2023 21:38 13,5 C 12,8 C 9,4 C 98 % 1012,3 hPa 0,0 l/m 0 min 2 min 0 W/m 16,1 km/h (3 Bft) 100,00 %
06.08.2023 21:40 13,5 C 12,8 C 9,4 C 98 % 1012,3 hPa 0,0 l/m 0 min 2 min 0 W/m 16,1 km/h (3 Bft) 97,87 %
06.08.2023 21:42 13,5 C 12,8 C 9,4 C 98 % 1012,4 hPa 0,0 l/m 0 min 2 min 0 W/m 12,9 km/h (3 Bft) 100,00 %
06.08.2023 21:44 13,5 C 12,8 C 9,4 C 98 % 1012,3 hPa 0,0 l/m 0 min 2 min 0 W/m 12,9 km/h (3 Bft) 97,87 %
06.08.2023 21:46 13,5 C 12,8 C 9,4 C 98 % 1012,3 hPa 0,0 l/m 0 min 0 min 0 W/m 12,9 km/h (3 Bft) 97,87 %
06.08.2023 21:48 13,5 C 12,8 C 9,4 C 98 % 1012,4 hPa 0,0 l/m 0 min 0 min 0 W/m 9,7 km/h (2 Bft) 95,65 %
06.08.2023 21:50 13,4 C 12,8 C 9,4 C 98 % 1012,4 hPa 0,0 l/m 0 min 2 min 0 W/m 19,3 km/h (3 Bft) 97,87 %
06.08.2023 21:52 13,4 C 12,8 C 9,4 C 98 % 1012,4 hPa 0,0 l/m 0 min 0 min 0 W/m 9,7 km/h (2 Bft) 97,87 %
06.08.2023 21:54 13,4 C 12,8 C 9,4 C 98 % 1012,4 hPa 0,0 l/m 0 min 2 min 0 W/m 16,1 km/h (3 Bft) 51,16 %
06.08.2023 21:56 13,4 C 12,8 C 9,4 C 98 % 1012,4 hPa 0,0 l/m 0 min 0 min 0 W/m 12,9 km/h (3 Bft) 97,50 %
06.08.2023 21:58 13,4 C 12,8 C 9,4 C 98 % 1012,4 hPa 0,0 l/m 0 min 0 min 0 W/m 22,5 km/h (4 Bft) 91,49 %
06.08.2023 22:00 13,4 C 12,8 C 9,4 C 98 % 1012,4 hPa 0,0 l/m 0 min 0 min 0 W/m 12,9 km/h (3 Bft) 93,62 %
06.08.2023 22:02 13,4 C 12,8 C 9,4 C 98 % 1012,5 hPa 0,0 l/m 0 min 0 min 0 W/m 16,1 km/h (3 Bft) 93,48 %
06.08.2023 22:04 13,4 C 12,8 C 9,4 C 98 % 1012,4 hPa 0,0 l/m 0 min 0 min 0 W/m 12,9 km/h (3 Bft) 93,62 %
06.08.2023 22:06 13,4 C 12,8 C 9,4 C 98 % 1012,4 hPa 0,0 l/m 0 min 0 min 0 W/m 12,9 km/h (3 Bft) 93,88 %
06.08.2023 22:08 13,4 C 12,8 C 9,4 C 98 % 1012,4 hPa 0,0 l/m 0 min 0 min 0 W/m 16,1 km/h (3 Bft) 93,62 %
06.08.2023 22:10 13,4 C 12,8 C 9,4 C 98 % 1012,4 hPa 0,0 l/m 0 min 0 min 0 W/m 25,7 km/h (4 Bft) 93,62 %
06.08.2023 22:12 13,4 C 12,8 C 9,4 C 98 % 1012,4 hPa 0,0 l/m 0 min 0 min 0 W/m 16,1 km/h (3 Bft) 91,49 %
06.08.2023 22:14 13,4 C 12,8 C 9,4 C 98 % 1012,4 hPa 0,0 l/m 0 min 0 min 0 W/m 16,1 km/h (3 Bft) 93,62 %
06.08.2023 22:16 13,4 C 12,8 C 9,4 C 98 % 1012,4 hPa 0,0 l/m 0 min 0 min 0 W/m 22,5 km/h (4 Bft) 95,65 %
06.08.2023 22:18 13,4 C 12,8 C 9,4 C 98 % 1012,5 hPa 0,0 l/m 0 min 0 min 0 W/m 16,1 km/h (3 Bft) 91,49 %
06.08.2023 22:20 13,4 C 12,8 C 9,4 C 98 % 1012,5 hPa 0,0 l/m 0 min 0 min 0 W/m 6,4 km/h (2 Bft) 91,49 %
06.08.2023 22:22 13,4 C 12,8 C 9,4 C 98 % 1012,5 hPa 0,0 l/m 0 min 0 min 0 W/m 16,1 km/h (3 Bft) 89,36 %
06.08.2023 22:24 13,4 C 12,8 C 9,4 C 98 % 1012,5 hPa 0,0 l/m 0 min 0 min 0 W/m 16,1 km/h (3 Bft) 93,62 %
06.08.2023 22:26 13,4 C 12,8 C 9,4 C 97 % 1012,5 hPa 0,0 l/m 0 min 0 min 0 W/m 19,3 km/h (3 Bft) 89,36 %
06.08.2023 22:28 13,3 C 12,8 C 9,4 C 97 % 1012,5 hPa 0,0 l/m 0 min 0 min 0 W/m 19,3 km/h (3 Bft) 93,62 %
06.08.2023 22:30 13,3 C 12,8 C 9,4 C 97 % 1012,6 hPa 0,0 l/m 0 min 0 min 0 W/m 16,1 km/h (3 Bft) 93,62 %
06.08.2023 22:32 13,3 C 12,8 C 9,4 C 97 % 1012,6 hPa 0,0 l/m 0 min 0 min 0 W/m 16,1 km/h (3 Bft) 95,65 %
06.08.2023 22:34 13,3 C 12,8 C 9,4 C 97 % 1012,6 hPa 0,0 l/m 0 min 0 min 0 W/m 22,5 km/h (4 Bft) 95,74 %
06.08.2023 22:36 13,3 C 12,8 C 9,4 C 97 % 1012,6 hPa 0,0 l/m 0 min 0 min 0 W/m 19,3 km/h (3 Bft) 89,36 %
06.08.2023 22:38 13,3 C 12,8 C 9,4 C 97 % 1012,5 hPa 0,0 l/m 0 min 0 min 0 W/m 19,3 km/h (3 Bft) 95,74 %
06.08.2023 22:40 13,3 C 12,8 C 9,4 C 97 % 1012,6 hPa 0,0 l/m 0 min 0 min 0 W/m 22,5 km/h (4 Bft) 97,87 %
06.08.2023 22:42 13,3 C 12,8 C 9,4 C 97 % 1012,5 hPa 0,0 l/m 0 min 0 min 0 W/m 25,7 km/h (4 Bft) 97,87 %
06.08.2023 22:44 13,3 C 12,8 C 9,4 C 97 % 1012,6 hPa 0,0 l/m 0 min 0 min 0 W/m 19,3 km/h (3 Bft) 95,74 %
06.08.2023 22:46 13,2 C 12,8 C 9,4 C 97 % 1012,5 hPa 0,0 l/m 0 min 0 min 0 W/m 16,1 km/h (3 Bft) 94,29 %
06.08.2023 22:48 13,2 C 12,8 C 9,4 C 97 % 1012,6 hPa 0,0 l/m 0 min 0 min 0 W/m 9,7 km/h (2 Bft) 100,00 %
06.08.2023 22:50 13,3 C 12,8 C 9,4 C 97 % 1012,6 hPa 0,0 l/m 0 min 0 min 0 W/m 16,1 km/h (3 Bft) 100,00 %
06.08.2023 22:52 13,2 C 12,8 C 9,4 C 97 % 1012,6 hPa 0,0 l/m 0 min 0 min 0 W/m 25,7 km/h (4 Bft) 96,61 %
06.08.2023 22:54 13,2 C 12,8 C 9,4 C 97 % 1012,6 hPa 0,0 l/m 0 min 0 min 0 W/m 25,7 km/h (4 Bft) 100,00 %
06.08.2023 22:56 13,2 C 12,8 C 9,4 C 97 % 1012,6 hPa 0,0 l/m 0 min 0 min 0 W/m 12,9 km/h (3 Bft) 100,00 %
06.08.2023 22:58 13,2 C 12,8 C 9,4 C 97 % 1012,6 hPa 0,0 l/m 0 min 0 min 0 W/m 9,7 km/h (2 Bft) 100,00 %
06.08.2023 23:00 13,2 C 12,8 C 9,4 C 97 % 1012,6 hPa 0,0 l/m 0 min 0 min 0 W/m 19,3 km/h (3 Bft) 97,87 %
06.08.2023 23:02 13,2 C 12,8 C 9,4 C 97 % 1012,6 hPa 0,0 l/m 0 min 0 min 0 W/m 16,1 km/h (3 Bft) 100,00 %
06.08.2023 23:04 13,3 C 12,8 C 9,4 C 97 % 1012,6 hPa 0,0 l/m 0 min 0 min 0 W/m 19,3 km/h (3 Bft) 100,00 %
06.08.2023 23:06 13,3 C 12,8 C 9,4 C 97 % 1012,6 hPa 0,0 l/m 0 min 0 min 0 W/m 12,9 km/h (3 Bft) 98,41 %
06.08.2023 23:08 13,3 C 12,8 C 9,4 C 97 % 1012,6 hPa 0,0 l/m 0 min 0 min 0 W/m 12,9 km/h (3 Bft) 100,00 %
06.08.2023 23:10 13,3 C 12,8 C 9,4 C 97 % 1012,5 hPa 0,0 l/m 0 min 0 min 0 W/m 16,1 km/h (3 Bft) 97,87 %
06.08.2023 23:12 13,3 C 12,8 C 9,4 C 97 % 1012,5 hPa 0,0 l/m 0 min 0 min 0 W/m 19,3 km/h (3 Bft) 100,00 %
06.08.2023 23:14 13,3 C 12,8 C 9,4 C 97 % 1012,5 hPa 0,0 l/m 0 min 0 min 0 W/m 16,1 km/h (3 Bft) 100,00 %
06.08.2023 23:16 13,3 C 12,8 C 9,4 C 97 % 1012,6 hPa 0,0 l/m 0 min 0 min 0 W/m 12,9 km/h (3 Bft) 100,00 %
06.08.2023 23:18 13,3 C 12,8 C 9,4 C 97 % 1012,6 hPa 0,0 l/m 0 min 0 min 0 W/m 16,1 km/h (3 Bft) 100,00 %
06.08.2023 23:20 13,3 C 12,8 C 9,4 C 97 % 1012,6 hPa 0,0 l/m 0 min 0 min 0 W/m 16,1 km/h (3 Bft) 100,00 %
06.08.2023 23:22 13,3 C 12,8 C 9,4 C 97 % 1012,6 hPa 0,0 l/m 0 min 0 min 0 W/m 19,3 km/h (3 Bft) 100,00 %
06.08.2023 23:24 13,3 C 12,8 C 9,4 C 97 % 1012,6 hPa 0,0 l/m 0 min 0 min 0 W/m 9,7 km/h (2 Bft) 100,00 %
06.08.2023 23:26 13,3 C 12,8 C 9,4 C 97 % 1012,6 hPa 0,0 l/m 0 min 0 min 0 W/m 22,5 km/h (4 Bft) 100,00 %
06.08.2023 23:28 13,3 C 12,8 C 9,4 C 97 % 1012,6 hPa 0,0 l/m 0 min 0 min 0 W/m 12,9 km/h (3 Bft) 97,87 %
06.08.2023 23:30 13,2 C 12,8 C 9,4 C 97 % 1012,6 hPa 0,0 l/m 0 min 0 min 0 W/m 16,1 km/h (3 Bft) 97,83 %
06.08.2023 23:32 13,2 C 12,8 C 9,4 C 97 % 1012,7 hPa 0,0 l/m 0 min 0 min 0 W/m 25,7 km/h (4 Bft) 100,00 %
06.08.2023 23:34 13,2 C 12,8 C 9,4 C 97 % 1012,6 hPa 0,0 l/m 0 min 0 min 0 W/m 25,7 km/h (4 Bft) 100,00 %
06.08.2023 23:36 13,2 C 12,8 C 8,9 C 97 % 1012,6 hPa 0,0 l/m 0 min 0 min 0 W/m 35,4 km/h (5 Bft) 100,00 %
06.08.2023 23:38 13,2 C 12,8 C 9,4 C 97 % 1012,7 hPa 0,0 l/m 0 min 0 min 0 W/m 16,1 km/h (3 Bft) 100,00 %
06.08.2023 23:40 13,2 C 12,8 C 9,4 C 97 % 1012,6 hPa 0,0 l/m 0 min 0 min 0 W/m 22,5 km/h (4 Bft) 100,00 %
06.08.2023 23:42 13,2 C 12,8 C 8,9 C 97 % 1012,6 hPa 0,0 l/m 0 min 0 min 0 W/m 22,5 km/h (4 Bft) 100,00 %
06.08.2023 23:44 13,2 C 12,8 C 9,4 C 97 % 1012,6 hPa 0,0 l/m 0 min 0 min 0 W/m 12,9 km/h (3 Bft) 100,00 %
06.08.2023 23:46 13,2 C 12,8 C 9,4 C 97 % 1012,6 hPa 0,0 l/m 0 min 0 min 0 W/m 12,9 km/h (3 Bft) 100,00 %
06.08.2023 23:48 13,2 C 12,8 C 9,4 C 97 % 1012,6 hPa 0,0 l/m 0 min 0 min 0 W/m 16,1 km/h (3 Bft) 100,00 %
06.08.2023 23:50 13,2 C 12,8 C 9,4 C 97 % 1012,6 hPa 0,0 l/m 0 min 0 min 0 W/m 12,9 km/h (3 Bft) 100,00 %
06.08.2023 23:52 13,2 C 12,8 C 8,9 C 97 % 1012,6 hPa 0,0 l/m 0 min 0 min 0 W/m 22,5 km/h (4 Bft) 97,87 %
06.08.2023 23:54 13,2 C 12,8 C 8,9 C 97 % 1012,7 hPa 0,0 l/m 0 min 0 min 0 W/m 19,3 km/h (3 Bft) 100,00 %
06.08.2023 23:56 13,2 C 12,8 C 9,4 C 97 % 1012,7 hPa 0,0 l/m 0 min 0 min 0 W/m 16,1 km/h (3 Bft) 100,00 %
06.08.2023 23:58 13,2 C 12,8 C 9,4 C 97 % 1012,6 hPa 0,0 l/m 0 min 0 min 0 W/m 22,5 km/h (4 Bft) 93,62 %
_ Min-Zeit 22:46 21:10 23:36 10:28 05:30 - - - - 00:54 21:54
Minimum _ 13,2 C 12,8 C 8,9 C 86 % 1003,6 hPa - - - - 0,0 km/h (0 Bft) 51,16 %
_ Max-Zeit 10:26 10:12 10:16 13:46 23:32 19:16 07:06 12:08 10:12 19:52 00:02
Maximum _ 18,3 C 22,2 C 15,0 C 98 % 1012,7 hPa 0,4 l/m 2 min 4 min 797 W/m 45,1 km/h
W-NW (6 Bft)
100,00 %
Durchschnitt _ 15,3 C 14,9 C 11,2 C 95 % 1007,1 hPa #7,8 l/m #56 min. #9:54 h 147 W/m 11,7 km/h (2 Bft) 97,33 %
© 2023 W. Hausmann